Observation data for Hobbs on 03/05/2021      Previous  Date  Next       Current Mesonet Observations  Soil Data  Daily Summary Page  Observations in Plain Language
KHO1 050600Z 32007KT 09/M08 A3005 RMK A01 T00851075  RH  032%=      5-min Rain = 0
KHO1 050601Z 32007KT 08/M07 A3006 RMK A01 T00841074  RH  032%=      5-min Rain = 0
KHO1 050602Z 32007KT 08/M07 A3006 RMK A01 T00841074  RH  032%=      5-min Rain = 0
KHO1 050603Z 32006KT 08/M07 A3006 RMK A01 T00831074  RH  032%=      5-min Rain = 0
KHO1 050604Z 32006KT 08/M07 A3006 RMK A01 T00821074  RH  032%=      5-min Rain = 0
KHO1 050605Z 32007KT 08/M07 A3006 RMK A01 T00821074  RH  032%=      5-min Rain = 0
KHO1 050606Z 32006KT 08/M07 A3006 RMK A01 T00821073  RH  032%=      5-min Rain = 0
KHO1 050607Z 32006KT 08/M07 A3006 RMK A01 T00821073  RH  033%=      5-min Rain = 0
KHO1 050608Z 32006KT 08/M07 A3006 RMK A01 T00831073  RH  033%=      5-min Rain = 0
KHO1 050609Z 33007KT 08/M07 A3006 RMK A01 T00821072  RH  033%=      5-min Rain = 0
KHO1 050610Z 33007KT 08/M07 A3006 RMK A01 T00821072  RH  033%=      5-min Rain = 0
KHO1 050611Z 33006KT 08/M07 A3006 RMK A01 T00821072  RH  033%=      5-min Rain = 0
KHO1 050612Z 32006KT 08/M07 A3006 RMK A01 T00821071  RH  033%=      5-min Rain = 0
KHO1 050613Z 32006KT 08/M07 A3006 RMK A01 T00821071  RH  033%=      5-min Rain = 0
KHO1 050614Z 31007KT 08/M07 A3006 RMK A01 T00821071  RH  033%=      5-min Rain = 0
KHO1 050615Z 31008KT 08/M07 A3006 RMK A01 T00811070  RH  033%=      5-min Rain = 0
KHO1 050616Z 31007KT 08/M07 A3006 RMK A01 T00821070  RH  033%=      5-min Rain = 0
KHO1 050617Z 31007KT 08/M07 A3006 RMK A01 T00811070  RH  033%=      5-min Rain = 0
KHO1 050618Z 31007KT 08/M07 A3006 RMK A01 T00811070  RH  034%=      5-min Rain = 0
KHO1 050619Z 31007KT 08/M07 A3006 RMK A01 T00801070  RH  034%=      5-min Rain = 0
KHO1 050620Z 30007KT 08/M07 A3006 RMK A01 T00801070  RH  034%=      5-min Rain = 0
KHO1 050621Z 30006KT 08/M07 A3006 RMK A01 T00801070  RH  034%=      5-min Rain = 0
KHO1 050622Z 30006KT 08/M07 A3006 RMK A01 T00801071  RH  034%=      5-min Rain = 0
KHO1 050623Z 30005KT 08/M07 A3006 RMK A01 T00791072  RH  034%=      5-min Rain = 0
KHO1 050624Z 29005KT 08/M07 A3006 RMK A01 T00781072  RH  034%=      5-min Rain = 0
KHO1 050625Z 29005KT 08/M07 A3006 RMK A01 T00781072  RH  034%=      5-min Rain = 0
KHO1 050626Z 29004KT 08/M07 A3006 RMK A01 T00781072  RH  034%=      5-min Rain = 0
KHO1 050627Z 29005KT 08/M07 A3006 RMK A01 T00771073  RH  034%=      5-min Rain = 0
KHO1 050628Z 29004KT 08/M07 A3006 RMK A01 T00761072  RH  034%=      5-min Rain = 0
KHO1 050629Z 29005KT 08/M07 A3006 RMK A01 T00761071  RH  034%=      5-min Rain = 0
KHO1 050630Z 29005KT 08/M07 A3006 RMK A01 T00751071  RH  035%=      5-min Rain = 0
KHO1 050631Z 28005KT 08/M07 A3006 RMK A01 T00751072  RH  035%=      5-min Rain = 0
KHO1 050632Z 28005KT 07/M07 A3006 RMK A01 T00741072  RH  035%=      5-min Rain = 0
KHO1 050633Z 28005KT 07/M07 A3006 RMK A01 T00731073  RH  035%=      5-min Rain = 0
KHO1 050634Z 29005KT 07/M07 A3006 RMK A01 T00731074  RH  034%=      5-min Rain = 0
KHO1 050635Z 29005KT 07/M08 A3006 RMK A01 T00711075  RH  034%=      5-min Rain = 0
KHO1 050636Z 28005KT 07/M08 A3006 RMK A01 T00711075  RH  035%=      5-min Rain = 0
KHO1 050637Z 29005KT 07/M08 A3006 RMK A01 T00701076  RH  035%=      5-min Rain = 0
KHO1 050638Z 29005KT 07/M08 A3006 RMK A01 T00691077  RH  035%=      5-min Rain = 0
KHO1 050639Z 29005KT 07/M08 A3006 RMK A01 T00691077  RH  035%=      5-min Rain = 0
KHO1 050640Z 30005KT 07/M08 A3006 RMK A01 T00681077  RH  035%=      5-min Rain = 0
KHO1 050641Z 31005KT 07/M08 A3006 RMK A01 T00681077  RH  035%=      5-min Rain = 0
KHO1 050642Z 31005KT 07/M08 A3006 RMK A01 T00681076  RH  035%=      5-min Rain = 0
KHO1 050643Z 31005KT 07/M08 A3006 RMK A01 T00681076  RH  035%=      5-min Rain = 0
KHO1 050644Z 31006KT 07/M08 A3006 RMK A01 T00681075  RH  035%=      5-min Rain = 0
KHO1 050645Z 30005KT 07/M08 A3006 RMK A01 T00691075  RH  035%=      5-min Rain = 0
KHO1 050646Z 30005KT 07/M08 A3006 RMK A01 T00691076  RH  035%=      5-min Rain = 0
KHO1 050647Z 30006KT 07/M08 A3006 RMK A01 T00701075  RH  035%=      5-min Rain = 0
KHO1 050648Z 30006KT 07/M08 A3006 RMK A01 T00701075  RH  035%=      5-min Rain = 0
KHO1 050649Z 30006KT 07/M08 A3007 RMK A01 T00711075  RH  035%=      5-min Rain = 0
KHO1 050650Z 30006KT 07/M08 A3007 RMK A01 T00711075  RH  034%=      5-min Rain = 0
KHO1 050651Z 29006KT 07/M08 A3007 RMK A01 T00721075  RH  034%=      5-min Rain = 0
KHO1 050652Z 29006KT 07/M08 A3006 RMK A01 T00721075  RH  034%=      5-min Rain = 0
KHO1 050653Z 29006KT 07/M08 A3006 RMK A01 T00711076  RH  034%=      5-min Rain = 0
KHO1 050654Z 29006KT 07/M08 A3007 RMK A01 T00711076  RH  034%=      5-min Rain = 0
KHO1 050655Z 29007KT 07/M08 A3007 RMK A01 T00711076  RH  034%=      5-min Rain = 0
KHO1 050656Z 29006KT 07/M08 A3007 RMK A01 T00701076  RH  035%=      5-min Rain = 0
KHO1 050657Z 29006KT 07/M08 A3007 RMK A01 T00701076  RH  035%=      5-min Rain = 0
KHO1 050658Z 30007KT 07/M08 A3007 RMK A01 T00701076  RH  035%=      5-min Rain = 0
KHO1 050659Z 30007KT 07/M08 A3007 RMK A01 T00691076  RH  035%=      5-min Rain = 0
KHO1 050700Z 30007KT 07/M08 A3007 RMK A01 T00691075  RH  035%=      5-min Rain = 0
KHO1 050701Z 30007KT 07/M07 A3007 RMK A01 T00691074  RH  035%=      5-min Rain = 0
KHO1 050702Z 30007KT 07/M07 A3007 RMK A01 T00691074  RH  035%=      5-min Rain = 0
KHO1 050703Z 30008KT 07/M07 A3007 RMK A01 T00701073  RH  035%=      5-min Rain = 0
KHO1 050704Z 30007KT 07/M07 A3007 RMK A01 T00711073  RH  035%=      5-min Rain = 0
KHO1 050705Z 30006KT 07/M07 A3007 RMK A01 T00711073  RH  035%=      5-min Rain = 0
KHO1 050706Z 31008KT 07/M07 A3007 RMK A01 T00711072  RH  036%=      5-min Rain = 0
KHO1 050707Z 31007KT 07/M07 A3007 RMK A01 T00711071  RH  036%=      5-min Rain = 0
KHO1 050708Z 30008KT 07/M07 A3007 RMK A01 T00721070  RH  036%=      5-min Rain = 0
KHO1 050709Z 30009KT 07/M07 A3007 RMK A01 T00741069  RH  035%=      5-min Rain = 0
KHO1 050710Z 31007KT 08/M07 A3006 RMK A01 T00751070  RH  035%=      5-min Rain = 0
KHO1 050711Z 31008KT 08/M07 A3007 RMK A01 T00761070  RH  035%=      5-min Rain = 0
KHO1 050712Z 31007KT 08/M07 A3007 RMK A01 T00771070  RH  035%=      5-min Rain = 0
KHO1 050713Z 31008KT 08/M07 A3007 RMK A01 T00771069  RH  035%=      5-min Rain = 0
KHO1 050714Z 31007KT 08/M07 A3007 RMK A01 T00771069  RH  035%=      5-min Rain = 0
KHO1 050715Z 31007KT 08/M07 A3007 RMK A01 T00771068  RH  035%=      5-min Rain = 0
KHO1 050716Z 31008KT 08/M07 A3006 RMK A01 T00771067  RH  035%=      5-min Rain = 0
KHO1 050717Z 31008KT 08/M07 A3007 RMK A01 T00771067  RH  035%=      5-min Rain = 0
KHO1 050718Z 31010KT 08/M07 A3006 RMK A01 T00771065  RH  036%=      5-min Rain = 0
KHO1 050719Z 30009KT 08/M07 A3006 RMK A01 T00781065  RH  036%=      5-min Rain = 0
KHO1 050720Z 30010KT 08/M07 A3006 RMK A01 T00791065  RH  035%=      5-min Rain = 0
KHO1 050721Z 30010KT 08/M07 A3006 RMK A01 T00801065  RH  035%=      5-min Rain = 0
KHO1 050722Z 31011KT 08/M07 A3006 RMK A01 T00821065  RH  035%=      5-min Rain = 0
KHO1 050723Z 31010KT 08/M07 A3006 RMK A01 T00831065  RH  034%=      5-min Rain = 0
KHO1 050724Z 30011KT 08/M07 A3006 RMK A01 T00841065  RH  034%=      5-min Rain = 0
KHO1 050725Z 31012KT 09/M07 A3006 RMK A01 T00861065  RH  034%=      5-min Rain = 0
KHO1 050726Z 31012KT 09/M07 A3006 RMK A01 T00871066  RH  033%=      5-min Rain = 0
KHO1 050727Z 31012KT 09/M07 A3006 RMK A01 T00881066  RH  033%=      5-min Rain = 0
KHO1 050728Z 31011KT 09/M07 A3006 RMK A01 T00891066  RH  033%=      5-min Rain = 0
KHO1 050729Z 31012KT 09/M07 A3006 RMK A01 T00891066  RH  033%=      5-min Rain = 0
KHO1 050730Z 31010KT 09/M07 A3006 RMK A01 T00901066  RH  033%=      5-min Rain = 0
KHO1 050731Z 31012KT 09/M07 A3006 RMK A01 T00891066  RH  033%=      5-min Rain = 0
KHO1 050732Z 31011KT 09/M07 A3006 RMK A01 T00901066  RH  032%=      5-min Rain = 0
KHO1 050733Z 31012KT 09/M07 A3006 RMK A01 T00901067  RH  032%=      5-min Rain = 0
KHO1 050734Z 31012KT 09/M07 A3006 RMK A01 T00911067  RH  032%=      5-min Rain = 0
KHO1 050735Z 31011KT 09/M07 A3006 RMK A01 T00911067  RH  032%=      5-min Rain = 0
KHO1 050736Z 31011KT 09/M07 A3006 RMK A01 T00901067  RH  032%=      5-min Rain = 0
KHO1 050737Z 31011KT 09/M07 A3006 RMK A01 T00901067  RH  032%=      5-min Rain = 0
KHO1 050738Z 31011KT 09/M07 A3006 RMK A01 T00891067  RH  033%=      5-min Rain = 0
KHO1 050739Z 31012KT 09/M07 A3006 RMK A01 T00881067  RH  033%=      5-min Rain = 0
KHO1 050740Z 31011KT 09/M07 A3007 RMK A01 T00881067  RH  033%=      5-min Rain = 0
KHO1 050741Z 31010KT 09/M07 A3007 RMK A01 T00881067  RH  033%=      5-min Rain = 0
KHO1 050742Z 31010KT 09/M07 A3006 RMK A01 T00871067  RH  033%=      5-min Rain = 0
KHO1 050743Z 31011KT 09/M07 A3006 RMK A01 T00871067  RH  033%=      5-min Rain = 0
KHO1 050744Z 31009KT 09/M07 A3006 RMK A01 T00861067  RH  033%=      5-min Rain = 0
KHO1 050745Z 31009KT 09/M07 A3007 RMK A01 T00851067  RH  033%=      5-min Rain = 0
KHO1 050746Z 31009KT 08/M07 A3007 RMK A01 T00841067  RH  034%=      5-min Rain = 0
KHO1 050747Z 31009KT 08/M07 A3007 RMK A01 T00831067  RH  034%=      5-min Rain = 0
KHO1 050748Z 32009KT 08/M07 A3007 RMK A01 T00831067  RH  034%=      5-min Rain = 0
KHO1 050749Z 32009KT 08/M07 A3007 RMK A01 T00821067  RH  034%=      5-min Rain = 0
KHO1 050750Z 32009KT 08/M07 A3007 RMK A01 T00811067  RH  034%=      5-min Rain = 0
KHO1 050751Z 32010KT 08/M07 A3007 RMK A01 T00801067  RH  035%=      5-min Rain = 0
KHO1 050752Z 32009KT 08/M07 A3007 RMK A01 T00801067  RH  035%=      5-min Rain = 0
KHO1 050753Z 32009KT 08/M07 A3007 RMK A01 T00801067  RH  035%=      5-min Rain = 0
KHO1 050754Z 31009KT 08/M07 A3007 RMK A01 T00791066  RH  035%=      5-min Rain = 0
KHO1 050755Z 31010KT 08/M07 A3007 RMK A01 T00791066  RH  035%=      5-min Rain = 0
KHO1 050756Z 32010KT 08/M07 A3007 RMK A01 T00791066  RH  035%=      5-min Rain = 0
KHO1 050757Z 31009KT 08/M07 A3007 RMK A01 T00781065  RH  035%=      5-min Rain = 0
KHO1 050758Z 31010KT 08/M07 A3007 RMK A01 T00781065  RH  036%=      5-min Rain = 0
KHO1 050759Z 31010KT 08/M07 A3007 RMK A01 T00771065  RH  036%=      5-min Rain = 0
KHO1 050800Z 31010KT 08/M07 A3007 RMK A01 T00771065  RH  036%=      5-min Rain = 0
KHO1 050801Z 31010KT 08/M07 A3007 RMK A01 T00771065  RH  036%=      5-min Rain = 0
KHO1 050802Z 31009KT 08/M07 A3007 RMK A01 T00771065  RH  036%=      5-min Rain = 0
KHO1 050803Z 31011KT 08/M07 A3007 RMK A01 T00771065  RH  036%=      5-min Rain = 0
KHO1 050804Z 31010KT 08/M07 A3007 RMK A01 T00781065  RH  036%=      5-min Rain = 0
KHO1 050805Z 31011KT 08/M07 A3007 RMK A01 T00771065  RH  036%=      5-min Rain = 0
KHO1 050806Z 32011KT 08/M07 A3007 RMK A01 T00781065  RH  036%=      5-min Rain = 0
KHO1 050807Z 31010KT 08/M07 A3007 RMK A01 T00781065  RH  036%=      5-min Rain = 0
KHO1 050808Z 31010KT 08/M07 A3007 RMK A01 T00771065  RH  036%=      5-min Rain = 0
KHO1 050809Z 31009KT 08/M07 A3007 RMK A01 T00771065  RH  036%=      5-min Rain = 0
KHO1 050810Z 31010KT 08/M07 A3007 RMK A01 T00771065  RH  036%=      5-min Rain = 0
KHO1 050811Z 31010KT 08/M07 A3007 RMK A01 T00771065  RH  036%=      5-min Rain = 0
KHO1 050812Z 31009KT 08/M07 A3007 RMK A01 T00771066  RH  036%=      5-min Rain = 0
KHO1 050813Z 31008KT 08/M07 A3007 RMK A01 T00771065  RH  036%=      5-min Rain = 0
KHO1 050814Z 31008KT 08/M07 A3007 RMK A01 T00771066  RH  036%=      5-min Rain = 0
KHO1 050815Z 31008KT 08/M07 A3007 RMK A01 T00761066  RH  036%=      5-min Rain = 0
KHO1 050816Z 31007KT 08/M07 A3008 RMK A01 T00751066  RH  036%=      5-min Rain = 0
KHO1 050817Z 31008KT 07/M07 A3008 RMK A01 T00741066  RH  036%=      5-min Rain = 0
KHO1 050818Z 30007KT 07/M07 A3008 RMK A01 T00741066  RH  036%=      5-min Rain = 0
KHO1 050819Z 30008KT 07/M07 A3008 RMK A01 T00741066  RH  036%=      5-min Rain = 0
KHO1 050820Z 30007KT 07/M07 A3008 RMK A01 T00741066  RH  036%=      5-min Rain = 0
KHO1 050821Z 30007KT 07/M07 A3008 RMK A01 T00731066  RH  036%=      5-min Rain = 0
KHO1 050822Z 30006KT 07/M07 A3008 RMK A01 T00721067  RH  037%=      5-min Rain = 0
KHO1 050823Z 30007KT 07/M07 A3008 RMK A01 T00721067  RH  037%=      5-min Rain = 0
KHO1 050824Z 30006KT 07/M07 A3008 RMK A01 T00711067  RH  037%=      5-min Rain = 0
KHO1 050825Z 30006KT 07/M07 A3008 RMK A01 T00711067  RH  037%=      5-min Rain = 0
KHO1 050826Z 30006KT 07/M07 A3008 RMK A01 T00711067  RH  037%=      5-min Rain = 0
KHO1 050827Z 30005KT 07/M07 A3008 RMK A01 T00711067  RH  037%=      5-min Rain = 0
KHO1 050828Z 29006KT 07/M07 A3008 RMK A01 T00711067  RH  037%=      5-min Rain = 0
KHO1 050829Z 30006KT 07/M07 A3008 RMK A01 T00711067  RH  037%=      5-min Rain = 0
KHO1 050830Z 30005KT 07/M07 A3008 RMK A01 T00711067  RH  037%=      5-min Rain = 0
KHO1 050831Z 30006KT 07/M07 A3008 RMK A01 T00701067  RH  037%=      5-min Rain = 0
KHO1 050832Z 30006KT 07/M07 A3008 RMK A01 T00691067  RH  037%=      5-min Rain = 0
KHO1 050833Z 30006KT 07/M07 A3008 RMK A01 T00701067  RH  037%=      5-min Rain = 0
KHO1 050834Z 30005KT 07/M07 A3008 RMK A01 T00691067  RH  037%=      5-min Rain = 0
KHO1 050835Z 30005KT 07/M07 A3008 RMK A01 T00681067  RH  037%=      5-min Rain = 0
KHO1 050836Z 31007KT 07/M07 A3008 RMK A01 T00681066  RH  038%=      5-min Rain = 0
KHO1 050837Z 31006KT 07/M07 A3008 RMK A01 T00691066  RH  038%=      5-min Rain = 0
KHO1 050838Z 31005KT 07/M07 A3008 RMK A01 T00681066  RH  038%=      5-min Rain = 0
KHO1 050839Z 31006KT 07/M07 A3008 RMK A01 T00681066  RH  038%=      5-min Rain = 0
KHO1 050840Z 31006KT 07/M07 A3008 RMK A01 T00671065  RH  038%=      5-min Rain = 0
KHO1 050841Z 31007KT 07/M06 A3008 RMK A01 T00671064  RH  038%=      5-min Rain = 0
KHO1 050842Z 31006KT 07/M06 A3008 RMK A01 T00671064  RH  039%=      5-min Rain = 0
KHO1 050843Z 31007KT 07/M06 A3008 RMK A01 T00671063  RH  039%=      5-min Rain = 0
KHO1 050844Z 31008KT 07/M06 A3008 RMK A01 T00671062  RH  039%=      5-min Rain = 0
KHO1 050845Z 31007KT 07/M06 A3008 RMK A01 T00691062  RH  039%=      5-min Rain = 0
KHO1 050846Z 31009KT 07/M06 A3008 RMK A01 T00691062  RH  039%=      5-min Rain = 0
KHO1 050847Z 31008KT 07/M06 A3008 RMK A01 T00701061  RH  039%=      5-min Rain = 0
KHO1 050848Z 31008KT 07/M06 A3007 RMK A01 T00711061  RH  038%=      5-min Rain = 0
KHO1 050849Z 31008KT 07/M06 A3008 RMK A01 T00721061  RH  038%=      5-min Rain = 0
KHO1 050850Z 30008KT 07/M06 A3008 RMK A01 T00721061  RH  038%=      5-min Rain = 0
KHO1 050851Z 31008KT 07/M06 A3008 RMK A01 T00731061  RH  038%=      5-min Rain = 0
KHO1 050852Z 31008KT 07/M06 A3008 RMK A01 T00731061  RH  038%=      5-min Rain = 0
KHO1 050853Z 31008KT 07/M06 A3008 RMK A01 T00731061  RH  038%=      5-min Rain = 0
KHO1 050854Z 31007KT 07/M06 A3008 RMK A01 T00731061  RH  038%=      5-min Rain = 0
KHO1 050855Z 31009KT 07/M06 A3008 RMK A01 T00731061  RH  038%=      5-min Rain = 0
KHO1 050856Z 32008KT 07/M06 A3008 RMK A01 T00731061  RH  038%=      5-min Rain = 0
KHO1 050857Z 31009KT 07/M06 A3008 RMK A01 T00741061  RH  038%=      5-min Rain = 0
KHO1 050858Z 31010KT 07/M06 A3008 RMK A01 T00741061  RH  038%=      5-min Rain = 0
KHO1 050859Z 31008KT 08/M06 A3008 RMK A01 T00751061  RH  038%=      5-min Rain = 0
KHO1 050900Z 31009KT 07/M06 A3008 RMK A01 T00741061  RH  038%=      5-min Rain = 0
KHO1 050901Z 31010KT 08/M06 A3008 RMK A01 T00751061  RH  038%=      5-min Rain = 0
KHO1 050902Z 31010KT 08/M06 A3008 RMK A01 T00751061  RH  037%=      5-min Rain = 0
KHO1 050903Z 31011KT 08/M06 A3008 RMK A01 T00761061  RH  037%=      5-min Rain = 0
KHO1 050904Z 32010KT 08/M06 A3007 RMK A01 T00761061  RH  037%=      5-min Rain = 0
KHO1 050905Z 32011KT 08/M06 A3008 RMK A01 T00761061  RH  037%=      5-min Rain = 0
KHO1 050906Z 31010KT 08/M06 A3007 RMK A01 T00761061  RH  037%=      5-min Rain = 0
KHO1 050907Z 31010KT 08/M06 A3007 RMK A01 T00761061  RH  037%=      5-min Rain = 0
KHO1 050908Z 32011KT 08/M06 A3007 RMK A01 T00761061  RH  037%=      5-min Rain = 0
KHO1 050909Z 32011KT 08/M06 A3007 RMK A01 T00761061  RH  037%=      5-min Rain = 0
KHO1 050910Z 31010KT 08/M06 A3007 RMK A01 T00761061  RH  037%=      5-min Rain = 0
KHO1 050911Z 31011KT 08/M06 A3007 RMK A01 T00761061  RH  037%=      5-min Rain = 0
KHO1 050912Z 32011KT 08/M06 A3007 RMK A01 T00761062  RH  037%=      5-min Rain = 0
KHO1 050913Z 31011KT 08/M06 A3007 RMK A01 T00751062  RH  037%=      5-min Rain = 0
KHO1 050914Z 31011KT 08/M06 A3007 RMK A01 T00751062  RH  037%=      5-min Rain = 0
KHO1 050915Z 31011KT 08/M06 A3007 RMK A01 T00751062  RH  037%=      5-min Rain = 0
KHO1 050916Z 32011KT 08/M06 A3007 RMK A01 T00751062  RH  037%=      5-min Rain = 0
KHO1 050917Z 32011KT 07/M06 A3007 RMK A01 T00741061  RH  038%=      5-min Rain = 0
KHO1 050918Z 31011KT 07/M06 A3007 RMK A01 T00741061  RH  037%=      5-min Rain = 0
KHO1 050919Z 32011KT 08/M06 A3007 RMK A01 T00751061  RH  037%=      5-min Rain = 0
KHO1 050920Z 32010KT 08/M06 A3007 RMK A01 T00751061  RH  037%=      5-min Rain = 0
KHO1 050921Z 32011KT 07/M06 A3007 RMK A01 T00741061  RH  038%=      5-min Rain = 0
KHO1 050922Z 31010KT 07/M06 A3007 RMK A01 T00741061  RH  038%=      5-min Rain = 0
KHO1 050923Z 32009KT 07/M06 A3007 RMK A01 T00741061  RH  038%=      5-min Rain = 0
KHO1 050924Z 32010KT 07/M06 A3008 RMK A01 T00731061  RH  038%=      5-min Rain = 0
KHO1 050925Z 32011KT 07/M06 A3007 RMK A01 T00731061  RH  038%=      5-min Rain = 0
KHO1 050926Z 31010KT 07/M06 A3007 RMK A01 T00741061  RH  038%=      5-min Rain = 0
KHO1 050927Z 31012KT 07/M06 A3007 RMK A01 T00741061  RH  038%=      5-min Rain = 0
KHO1 050928Z 32011KT 08/M06 A3007 RMK A01 T00751061  RH  038%=      5-min Rain = 0
KHO1 050929Z 32010KT 08/M06 A3008 RMK A01 T00761061  RH  037%=      5-min Rain = 0
KHO1 050930Z 32014KT 08/M06 A3008 RMK A01 T00761061  RH  037%=      5-min Rain = 0
KHO1 050931Z 31012KT 08/M06 A3008 RMK A01 T00771061  RH  037%=      5-min Rain = 0
KHO1 050932Z 31012KT 08/M06 A3007 RMK A01 T00771061  RH  037%=      5-min Rain = 0
KHO1 050933Z 31011KT 08/M06 A3008 RMK A01 T00781061  RH  037%=      5-min Rain = 0
KHO1 050934Z 31014KT 08/M06 A3008 RMK A01 T00781061  RH  037%=      5-min Rain = 0
KHO1 050935Z 31013KT 08/M06 A3008 RMK A01 T00781061  RH  036%=      5-min Rain = 0
KHO1 050936Z 31014KT 08/M06 A3008 RMK A01 T00791061  RH  036%=      5-min Rain = 0
KHO1 050937Z 31012KT 08/M06 A3008 RMK A01 T00791062  RH  036%=      5-min Rain = 0
KHO1 050938Z 31014KT 08/M06 A3008 RMK A01 T00791062  RH  036%=      5-min Rain = 0
KHO1 050939Z 31015KT 08/M06 A3008 RMK A01 T00801062  RH  036%=      5-min Rain = 0
KHO1 050940Z 31015KT 08/M06 A3008 RMK A01 T00811062  RH  035%=      5-min Rain = 0
KHO1 050941Z 31013KT 08/M06 A3008 RMK A01 T00811062  RH  036%=      5-min Rain = 0
KHO1 050942Z 31012KT 08/M06 A3008 RMK A01 T00801062  RH  036%=      5-min Rain = 0
KHO1 050943Z 31014KT 08/M06 A3008 RMK A01 T00801062  RH  036%=      5-min Rain = 0
KHO1 050944Z 31013KT 08/M06 A3008 RMK A01 T00801062  RH  036%=      5-min Rain = 0
KHO1 050945Z 31013KT 08/M06 A3008 RMK A01 T00801062  RH  036%=      5-min Rain = 0
KHO1 050946Z 31014KT 08/M06 A3008 RMK A01 T00801062  RH  036%=      5-min Rain = 0
KHO1 050947Z 31014KT 08/M06 A3008 RMK A01 T00811062  RH  036%=      5-min Rain = 0
KHO1 050948Z 31015KT 08/M06 A3008 RMK A01 T00811063  RH  035%=      5-min Rain = 0
KHO1 050949Z 31014KT 08/M06 A3008 RMK A01 T00811063  RH  035%=      5-min Rain = 0
KHO1 050950Z 31015KT 08/M06 A3008 RMK A01 T00811063  RH  035%=      5-min Rain = 0
KHO1 050951Z 31014KT 08/M06 A3008 RMK A01 T00811063  RH  035%=      5-min Rain = 0
KHO1 050952Z 31015KT 08/M06 A3008 RMK A01 T00811063  RH  035%=      5-min Rain = 0
KHO1 050953Z 31015KT 08/M06 A3008 RMK A01 T00811063  RH  036%=      5-min Rain = 0
KHO1 050954Z 31014G19KT 08/M06 A3008 RMK A01 T00811063  RH  035%=      5-min Rain = 0
KHO1 050955Z 31014G19KT 08/M06 A3008 RMK A01 T00811063  RH  036%=      5-min Rain = 0
KHO1 050956Z 31014KT 08/M06 A3008 RMK A01 T00811063  RH  035%=      5-min Rain = 0
KHO1 050957Z 31016KT 08/M06 A3008 RMK A01 T00811063  RH  036%=      5-min Rain = 0
KHO1 050958Z 31015KT 08/M06 A3008 RMK A01 T00811063  RH  035%=      5-min Rain = 0
KHO1 050959Z 32013KT 08/M06 A3008 RMK A01 T00811063  RH  035%=      5-min Rain = 0
KHO1 051000Z 31014KT 08/M06 A3008 RMK A01 T00801063  RH  036%=      5-min Rain = 0
KHO1 051001Z 32013KT 08/M06 A3008 RMK A01 T00801063  RH  036%=      5-min Rain = 0
KHO1 051002Z 32012KT 08/M06 A3008 RMK A01 T00801063  RH  036%=      5-min Rain = 0
KHO1 051003Z 31012KT 08/M06 A3008 RMK A01 T00791062  RH  036%=      5-min Rain = 0
KHO1 051004Z 32013KT 08/M06 A3008 RMK A01 T00791062  RH  036%=      5-min Rain = 0
KHO1 051005Z 31011G16KT 08/M06 A3009 RMK A01 T00781062  RH  036%=      5-min Rain = 0
KHO1 051006Z 32014KT 08/M06 A3008 RMK A01 T00781062  RH  036%=      5-min Rain = 0
KHO1 051007Z 32012KT 08/M06 A3008 RMK A01 T00791062  RH  036%=      5-min Rain = 0
KHO1 051008Z 32012KT 08/M06 A3008 RMK A01 T00791062  RH  036%=      5-min Rain = 0
KHO1 051009Z 32012KT 08/M06 A3008 RMK A01 T00791062  RH  036%=      5-min Rain = 0
KHO1 051010Z 32014KT 08/M06 A3009 RMK A01 T00791062  RH  036%=      5-min Rain = 0
KHO1 051011Z 32012KT 08/M06 A3009 RMK A01 T00791062  RH  036%=      5-min Rain = 0
KHO1 051012Z 32013KT 08/M06 A3009 RMK A01 T00791062  RH  036%=      5-min Rain = 0
KHO1 051013Z 32013KT 08/M06 A3009 RMK A01 T00791062  RH  036%=      5-min Rain = 0
KHO1 051014Z 31012KT 08/M06 A3009 RMK A01 T00781062  RH  036%=      5-min Rain = 0
KHO1 051015Z 31014KT 08/M06 A3009 RMK A01 T00781062  RH  036%=      5-min Rain = 0
KHO1 051016Z 32012KT 08/M06 A3009 RMK A01 T00781062  RH  036%=      5-min Rain = 0
KHO1 051017Z 31014KT 08/M06 A3009 RMK A01 T00781062  RH  036%=      5-min Rain = 0
KHO1 051018Z 31014KT 08/M06 A3009 RMK A01 T00781062  RH  036%=      5-min Rain = 0
KHO1 051019Z 31013KT 08/M06 A3009 RMK A01 T00781062  RH  036%=      5-min Rain = 0
KHO1 051020Z 32014G19KT 08/M06 A3009 RMK A01 T00781062  RH  036%=      5-min Rain = 0
KHO1 051021Z 32013KT 08/M06 A3009 RMK A01 T00781062  RH  036%=      5-min Rain = 0
KHO1 051022Z 32012KT 08/M06 A3009 RMK A01 T00771062  RH  036%=      5-min Rain = 0
KHO1 051023Z 32013KT 08/M06 A3009 RMK A01 T00761062  RH  037%=      5-min Rain = 0
KHO1 051024Z 31013KT 08/M06 A3009 RMK A01 T00761063  RH  037%=      5-min Rain = 0
KHO1 051025Z 32012KT 08/M06 A3009 RMK A01 T00761063  RH  037%=      5-min Rain = 0
KHO1 051026Z 32013KT 08/M06 A3009 RMK A01 T00761063  RH  037%=      5-min Rain = 0
KHO1 051027Z 32014KT 08/M06 A3009 RMK A01 T00761063  RH  037%=      5-min Rain = 0
KHO1 051028Z 32011KT 08/M06 A3009 RMK A01 T00761063  RH  037%=      5-min Rain = 0
KHO1 051029Z 32013KT 08/M06 A3009 RMK A01 T00751063  RH  037%=      5-min Rain = 0
KHO1 051030Z 32012KT 08/M06 A3009 RMK A01 T00751063  RH  037%=      5-min Rain = 0
KHO1 051031Z 32013KT 08/M06 A3009 RMK A01 T00751062  RH  037%=      5-min Rain = 0
KHO1 051032Z 32013KT 08/M06 A3009 RMK A01 T00751062  RH  037%=      5-min Rain = 0
KHO1 051033Z 32014G19KT 08/M06 A3009 RMK A01 T00751062  RH  037%=      5-min Rain = 0
KHO1 051034Z 32013KT 08/M06 A3009 RMK A01 T00751061  RH  037%=      5-min Rain = 0
KHO1 051035Z 32014G19KT 08/M06 A3009 RMK A01 T00751061  RH  037%=      5-min Rain = 0
KHO1 051036Z 32014KT 08/M06 A3009 RMK A01 T00751061  RH  037%=      5-min Rain = 0
KHO1 051037Z 32013KT 08/M06 A3009 RMK A01 T00751061  RH  038%=      5-min Rain = 0
KHO1 051038Z 32014KT 07/M06 A3009 RMK A01 T00741061  RH  038%=      5-min Rain = 0
KHO1 051039Z 32015KT 07/M06 A3009 RMK A01 T00741061  RH  038%=      5-min Rain = 0
KHO1 051040Z 32013KT 08/M06 A3009 RMK A01 T00751061  RH  038%=      5-min Rain = 0
KHO1 051041Z 32013KT 07/M06 A3009 RMK A01 T00741061  RH  038%=      5-min Rain = 0
KHO1 051042Z 32011KT 07/M06 A3009 RMK A01 T00741060  RH  038%=      5-min Rain = 0
KHO1 051043Z 32015KT 07/M06 A3009 RMK A01 T00731061  RH  038%=      5-min Rain = 0
KHO1 051044Z 32015KT 07/M06 A3009 RMK A01 T00741061  RH  038%=      5-min Rain = 0
KHO1 051045Z 32014KT 08/M06 A3009 RMK A01 T00751061  RH  038%=      5-min Rain = 0
KHO1 051046Z 33014KT 07/M06 A3009 RMK A01 T00741061  RH  038%=      5-min Rain = 0
KHO1 051047Z 32016KT 07/M06 A3009 RMK A01 T00741061  RH  038%=      5-min Rain = 0
KHO1 051048Z 32013KT 08/M06 A3009 RMK A01 T00751061  RH  037%=      5-min Rain = 0
KHO1 051049Z 33014KT 07/M06 A3009 RMK A01 T00741062  RH  037%=      5-min Rain = 0
KHO1 051050Z 32013KT 07/M06 A3009 RMK A01 T00741061  RH  038%=      5-min Rain = 0
KHO1 051051Z 32013G19KT 07/M06 A3009 RMK A01 T00741062  RH  037%=      5-min Rain = 0
KHO1 051052Z 32014KT 08/M06 A3009 RMK A01 T00751062  RH  037%=      5-min Rain = 0
KHO1 051053Z 33013KT 08/M06 A301 RMK A01 T00751062  RH  037%=      5-min Rain = 0
KHO1 051054Z 32015KT 08/M06 A3009 RMK A01 T00751061  RH  037%=      5-min Rain = 0
KHO1 051055Z 32013KT 07/M06 A301 RMK A01 T00741061  RH  038%=      5-min Rain = 0
KHO1 051056Z 32015KT 07/M06 A301 RMK A01 T00741062  RH  038%=      5-min Rain = 0
KHO1 051057Z 32014KT 07/M06 A301 RMK A01 T00741061  RH  038%=      5-min Rain = 0
KHO1 051058Z 32014KT 07/M06 A301 RMK A01 T00741061  RH  038%=      5-min Rain = 0
KHO1 051059Z 32014KT 07/M06 A301 RMK A01 T00731061  RH  038%=      5-min Rain = 0
KHO1 051100Z 32014KT 07/M06 A301 RMK A01 T00731061  RH  038%=      5-min Rain = 0
KHO1 051101Z 32014KT 07/M06 A301 RMK A01 T00731062  RH  038%=      5-min Rain = 0
KHO1 051102Z 32013KT 07/M06 A301 RMK A01 T00731062  RH  038%=      5-min Rain = 0
KHO1 051103Z 32012KT 07/M06 A301 RMK A01 T00731062  RH  038%=      5-min Rain = 0
KHO1 051104Z 33015KT 07/M06 A301 RMK A01 T00721062  RH  038%=      5-min Rain = 0
KHO1 051105Z 32015KT 07/M06 A301 RMK A01 T00731062  RH  038%=      5-min Rain = 0
KHO1 051106Z 32014KT 07/M06 A301 RMK A01 T00731062  RH  038%=      5-min Rain = 0
KHO1 051107Z 32015KT 07/M06 A301 RMK A01 T00731062  RH  038%=      5-min Rain = 0
KHO1 051108Z 32013KT 07/M06 A301 RMK A01 T00731062  RH  038%=      5-min Rain = 0
KHO1 051109Z 33013KT 07/M06 A301 RMK A01 T00721062  RH  038%=      5-min Rain = 0
KHO1 051110Z 32014KT 07/M06 A301 RMK A01 T00721062  RH  038%=      5-min Rain = 0
KHO1 051111Z 33013KT 07/M06 A301 RMK A01 T00711062  RH  038%=      5-min Rain = 0
KHO1 051112Z 32013KT 07/M06 A301 RMK A01 T00711062  RH  038%=      5-min Rain = 0
KHO1 051113Z 32014KT 07/M06 A301 RMK A01 T00711062  RH  038%=      5-min Rain = 0
KHO1 051114Z 33014KT 07/M06 A3011 RMK A01 T00711062  RH  038%=      5-min Rain = 0
KHO1 051115Z 32014KT 07/M06 A3011 RMK A01 T00701062  RH  039%=      5-min Rain = 0
KHO1 051116Z 32013G18KT 07/M06 A3011 RMK A01 T00701062  RH  039%=      5-min Rain = 0
KHO1 051117Z 32014KT 07/M06 A3011 RMK A01 T00701061  RH  039%=      5-min Rain = 0
KHO1 051118Z 32014KT 07/M06 A3011 RMK A01 T00691061  RH  039%=      5-min Rain = 0
KHO1 051119Z 32013KT 07/M06 A3011 RMK A01 T00681061  RH  039%=      5-min Rain = 0
KHO1 051120Z 32014KT 07/M06 A301 RMK A01 T00681062  RH  039%=      5-min Rain = 0
KHO1 051121Z 33012KT 07/M06 A3011 RMK A01 T00681062  RH  039%=      5-min Rain = 0
KHO1 051122Z 32012KT 07/M06 A3011 RMK A01 T00671061  RH  039%=      5-min Rain = 0
KHO1 051123Z 33012KT 07/M06 A301 RMK A01 T00671062  RH  039%=      5-min Rain = 0
KHO1 051124Z 33012KT 07/M06 A3011 RMK A01 T00661062  RH  040%=      5-min Rain = 0
KHO1 051125Z 33012KT 07/M06 A3011 RMK A01 T00661061  RH  040%=      5-min Rain = 0
KHO1 051126Z 33011KT 07/M06 A3011 RMK A01 T00651061  RH  040%=      5-min Rain = 0
KHO1 051127Z 33013KT 06/M06 A301 RMK A01 T00641062  RH  040%=      5-min Rain = 0
KHO1 051128Z 33012KT 06/M06 A3011 RMK A01 T00641062  RH  040%=      5-min Rain = 0
KHO1 051129Z 32012KT 06/M06 A301 RMK A01 T00641062  RH  040%=      5-min Rain = 0
KHO1 051130Z 32012KT 06/M06 A3011 RMK A01 T00641062  RH  040%=      5-min Rain = 0
KHO1 051131Z 32012KT 06/M06 A3011 RMK A01 T00641062  RH  040%=      5-min Rain = 0
KHO1 051132Z 32012KT 06/M06 A3011 RMK A01 T00631062  RH  040%=      5-min Rain = 0
KHO1 051133Z 32012KT 06/M06 A3011 RMK A01 T00631062  RH  040%=      5-min Rain = 0
KHO1 051134Z 32011KT 06/M06 A3011 RMK A01 T00621062  RH  041%=      5-min Rain = 0
KHO1 051135Z 32012KT 06/M06 A3011 RMK A01 T00621062  RH  041%=      5-min Rain = 0
KHO1 051136Z 33012KT 06/M06 A3011 RMK A01 T00621062  RH  041%=      5-min Rain = 0
KHO1 051137Z 33012KT 06/M06 A3011 RMK A01 T00621062  RH  041%=      5-min Rain = 0
KHO1 051138Z 32012KT 06/M06 A3011 RMK A01 T00611062  RH  041%=      5-min Rain = 0
KHO1 051139Z 33012G17KT 06/M06 A3011 RMK A01 T00611062  RH  041%=      5-min Rain = 0
KHO1 051140Z 33011KT 06/M06 A3011 RMK A01 T00611062  RH  041%=      5-min Rain = 0
KHO1 051141Z 33011G16KT 06/M06 A3011 RMK A01 T00601063  RH  041%=      5-min Rain = 0
KHO1 051142Z 33012KT 06/M06 A3011 RMK A01 T00591063  RH  041%=      5-min Rain = 0
KHO1 051143Z 33011KT 06/M06 A3011 RMK A01 T00591063  RH  041%=      5-min Rain = 0
KHO1 051144Z 33013KT 06/M06 A3011 RMK A01 T00591063  RH  041%=      5-min Rain = 0
KHO1 051145Z 33011KT 06/M06 A3011 RMK A01 T00591063  RH  041%=      5-min Rain = 0
KHO1 051146Z 33012KT 06/M06 A3011 RMK A01 T00591063  RH  041%=      5-min Rain = 0
KHO1 051147Z 33011KT 06/M06 A3011 RMK A01 T00581063  RH  041%=      5-min Rain = 0
KHO1 051148Z 33011KT 06/M06 A3011 RMK A01 T00581063  RH  041%=      5-min Rain = 0
KHO1 051149Z 33011KT 06/M06 A3011 RMK A01 T00581063  RH  041%=      5-min Rain = 0
KHO1 051150Z 33011KT 06/M06 A3011 RMK A01 T00571063  RH  042%=      5-min Rain = 0
KHO1 051151Z 33012KT 06/M06 A3011 RMK A01 T00571063  RH  042%=      5-min Rain = 0
KHO1 051152Z 33014KT 06/M06 A3011 RMK A01 T00571063  RH  042%=      5-min Rain = 0
KHO1 051153Z 33013KT 06/M06 A3011 RMK A01 T00571063  RH  042%=      5-min Rain = 0
KHO1 051154Z 33012KT 06/M06 A3011 RMK A01 T00571063  RH  042%=      5-min Rain = 0
KHO1 051155Z 33012KT 06/M06 A3011 RMK A01 T00571063  RH  042%=      5-min Rain = 0
KHO1 051156Z 33013KT 06/M06 A3011 RMK A01 T00571063  RH  042%=      5-min Rain = 0
KHO1 051157Z 33014KT 06/M06 A3011 RMK A01 T00571063  RH  042%=      5-min Rain = 0
KHO1 051158Z 33013G18KT 06/M06 A3011 RMK A01 T00571063  RH  042%=      5-min Rain = 0
KHO1 051159Z 33014KT 06/M06 A3011 RMK A01 T00571063  RH  042%=      5-min Rain = 0
KHO1 051200Z 32013KT 06/M06 A3011 RMK A01 T00571063  RH  042%=      5-min Rain = 0
KHO1 051201Z 32013KT 06/M06 A3011 RMK A01 T00571062  RH  042%=      5-min Rain = 0
KHO1 051202Z 32013KT 06/M06 A3011 RMK A01 T00561062  RH  042%=      5-min Rain = 0
KHO1 051203Z 32013KT 06/M06 A3011 RMK A01 T00561062  RH  042%=      5-min Rain = 0
KHO1 051204Z 32013KT 06/M06 A3012 RMK A01 T00561062  RH  042%=      5-min Rain = 0
KHO1 051205Z 33013KT 06/M06 A3012 RMK A01 T00551062  RH  042%=      5-min Rain = 0
KHO1 051206Z 33014KT 06/M06 A3012 RMK A01 T00551063  RH  042%=      5-min Rain = 0
KHO1 051207Z 33012KT 06/M06 A3012 RMK A01 T00551063  RH  042%=      5-min Rain = 0
KHO1 051208Z 32014KT 05/M06 A3012 RMK A01 T00541063  RH  043%=      5-min Rain = 0
KHO1 051209Z 33013KT 05/M06 A3012 RMK A01 T00541063  RH  043%=      5-min Rain = 0
KHO1 051210Z 33014KT 05/M06 A3012 RMK A01 T00541063  RH  043%=      5-min Rain = 0
KHO1 051211Z 33013KT 05/M06 A3012 RMK A01 T00541063  RH  043%=      5-min Rain = 0
KHO1 051212Z 33012KT 05/M06 A3012 RMK A01 T00531063  RH  043%=      5-min Rain = 0
KHO1 051213Z 32011KT 05/M06 A3012 RMK A01 T00531062  RH  043%=      5-min Rain = 0
KHO1 051214Z 33012KT 05/M06 A3012 RMK A01 T00521062  RH  043%=      5-min Rain = 0
KHO1 051215Z 33011KT 05/M06 A3013 RMK A01 T00521062  RH  044%=      5-min Rain = 0
KHO1 051216Z 32012KT 05/M06 A3013 RMK A01 T00521062  RH  044%=      5-min Rain = 0
KHO1 051217Z 33011KT 05/M06 A3013 RMK A01 T00521062  RH  044%=      5-min Rain = 0
KHO1 051218Z 33011KT 05/M06 A3013 RMK A01 T00521062  RH  044%=      5-min Rain = 0
KHO1 051219Z 33011KT 05/M06 A3013 RMK A01 T00521062  RH  044%=      5-min Rain = 0
KHO1 051220Z 32011KT 05/M06 A3013 RMK A01 T00521062  RH  044%=      5-min Rain = 0
KHO1 051221Z 32011KT 05/M06 A3013 RMK A01 T00521062  RH  044%=      5-min Rain = 0
KHO1 051222Z 33012KT 05/M06 A3013 RMK A01 T00531062  RH  043%=      5-min Rain = 0
KHO1 051223Z 32011KT 05/M06 A3013 RMK A01 T00531062  RH  043%=      5-min Rain = 0
KHO1 051224Z 32010KT 05/M06 A3013 RMK A01 T00531062  RH  043%=      5-min Rain = 0
KHO1 051225Z 32010KT 05/M06 A3013 RMK A01 T00531062  RH  043%=      5-min Rain = 0
KHO1 051226Z 32011KT 05/M06 A3013 RMK A01 T00521062  RH  044%=      5-min Rain = 0
KHO1 051227Z 32010KT 05/M06 A3013 RMK A01 T00521062  RH  043%=      5-min Rain = 0
KHO1 051228Z 32010KT 05/M06 A3013 RMK A01 T00521062  RH  044%=      5-min Rain = 0
KHO1 051229Z 32009KT 05/M06 A3013 RMK A01 T00521062  RH  044%=      5-min Rain = 0
KHO1 051230Z 31010KT 05/M06 A3013 RMK A01 T00521062  RH  044%=      5-min Rain = 0
KHO1 051231Z 32009KT 05/M06 A3013 RMK A01 T00511062  RH  044%=      5-min Rain = 0
KHO1 051232Z 32010KT 05/M06 A3013 RMK A01 T00511061  RH  044%=      5-min Rain = 0
KHO1 051233Z 32011KT 05/M06 A3013 RMK A01 T00521060  RH  044%=      5-min Rain = 0
KHO1 051234Z 32012KT 05/M06 A3013 RMK A01 T00541059  RH  044%=      5-min Rain = 0
KHO1 051235Z 32010KT 06/M06 A3013 RMK A01 T00551059  RH  044%=      5-min Rain = 0
KHO1 051236Z 32011KT 06/M06 A3013 RMK A01 T00561058  RH  044%=      5-min Rain = 0
KHO1 051237Z 32011KT 06/M06 A3013 RMK A01 T00561058  RH  044%=      5-min Rain = 0
KHO1 051238Z 32010KT 06/M06 A3013 RMK A01 T00571057  RH  044%=      5-min Rain = 0
KHO1 051239Z 32011KT 06/M06 A3013 RMK A01 T00571057  RH  044%=      5-min Rain = 0
KHO1 051240Z 31010KT 06/M06 A3013 RMK A01 T00571058  RH  044%=      5-min Rain = 0
KHO1 051241Z 32010KT 06/M06 A3013 RMK A01 T00571058  RH  043%=      5-min Rain = 0
KHO1 051242Z 32010KT 06/M06 A3014 RMK A01 T00571059  RH  043%=      5-min Rain = 0
KHO1 051243Z 31010KT 06/M06 A3013 RMK A01 T00571059  RH  043%=      5-min Rain = 0
KHO1 051244Z 31009KT 06/M06 A3013 RMK A01 T00561060  RH  043%=      5-min Rain = 0
KHO1 051245Z 32012KT 06/M06 A3013 RMK A01 T00561060  RH  043%=      5-min Rain = 0
KHO1 051246Z 31011KT 06/M06 A3013 RMK A01 T00561061  RH  043%=      5-min Rain = 0
KHO1 051247Z 31010KT 06/M06 A3013 RMK A01 T00561061  RH  043%=      5-min Rain = 0
KHO1 051248Z 32012KT 06/M06 A3013 RMK A01 T00561061  RH  043%=      5-min Rain = 0
KHO1 051249Z 32011KT 06/M06 A3013 RMK A01 T00561061  RH  043%=      5-min Rain = 0
KHO1 051250Z 32011KT 06/M06 A3013 RMK A01 T00561061  RH  043%=      5-min Rain = 0
KHO1 051251Z 32012KT 06/M06 A3014 RMK A01 T00561061  RH  043%=      5-min Rain = 0
KHO1 051252Z 32011KT 06/M06 A3014 RMK A01 T00561061  RH  043%=      5-min Rain = 0
KHO1 051253Z 32010KT 06/M06 A3014 RMK A01 T00561061  RH  043%=      5-min Rain = 0
KHO1 051254Z 32009KT 06/M06 A3014 RMK A01 T00561061  RH  043%=      5-min Rain = 0
KHO1 051255Z 32010G15KT 06/M06 A3014 RMK A01 T00551060  RH  043%=      5-min Rain = 0
KHO1 051256Z 32011KT 06/M06 A3014 RMK A01 T00561060  RH  043%=      5-min Rain = 0
KHO1 051257Z 32010KT 06/M06 A3014 RMK A01 T00561060  RH  043%=      5-min Rain = 0
KHO1 051258Z 32012KT 06/M06 A3014 RMK A01 T00561059  RH  043%=      5-min Rain = 0
KHO1 051259Z 32011KT 06/M06 A3014 RMK A01 T00571059  RH  043%=      5-min Rain = 0
KHO1 051300Z 32011KT 06/M06 A3014 RMK A01 T00581058  RH  043%=      5-min Rain = 0
KHO1 051301Z 33012KT 06/M06 A3014 RMK A01 T00581058  RH  043%=      5-min Rain = 0
KHO1 051302Z 33010KT 06/M06 A3014 RMK A01 T00581058  RH  043%=      5-min Rain = 0
KHO1 051303Z 33010KT 06/M06 A3014 RMK A01 T00581057  RH  043%=      5-min Rain = 0
KHO1 051304Z 33013KT 06/M06 A3014 RMK A01 T00581057  RH  043%=      5-min Rain = 0
KHO1 051305Z 32013KT 06/M06 A3014 RMK A01 T00591056  RH  043%=      5-min Rain = 0
KHO1 051306Z 33012KT 06/M06 A3014 RMK A01 T00601055  RH  043%=      5-min Rain = 0
KHO1 051307Z 33012KT 06/M06 A3014 RMK A01 T00611055  RH  043%=      5-min Rain = 0
KHO1 051308Z 33012KT 06/M05 A3014 RMK A01 T00621054  RH  043%=      5-min Rain = 0
KHO1 051309Z 33011KT 06/M05 A3014 RMK A01 T00621054  RH  043%=      5-min Rain = 0
KHO1 051310Z 33013KT 06/M05 A3014 RMK A01 T00621052  RH  044%=      5-min Rain = 0
KHO1 051311Z 34012G17KT 06/M05 A3014 RMK A01 T00641052  RH  044%=      5-min Rain = 0
KHO1 051312Z 33012KT 07/M05 A3014 RMK A01 T00651051  RH  044%=      5-min Rain = 0
KHO1 051313Z 34012KT 07/M05 A3014 RMK A01 T00651050  RH  043%=      5-min Rain = 0
KHO1 051314Z 33011KT 07/M05 A3014 RMK A01 T00661050  RH  043%=      5-min Rain = 0
KHO1 051315Z 34014KT 07/M05 A3014 RMK A01 T00661050  RH  043%=      5-min Rain = 0
KHO1 051316Z 34014G21KT 07/M05 A3015 RMK A01 T00671050  RH  043%=      5-min Rain = 0
KHO1 051317Z 33014KT 07/M05 A3015 RMK A01 T00681049  RH  043%=      5-min Rain = 0
KHO1 051318Z 34015KT 07/M05 A3015 RMK A01 T00681049  RH  043%=      5-min Rain = 0
KHO1 051319Z 34012G17KT 07/M05 A3015 RMK A01 T00681049  RH  043%=      5-min Rain = 0
KHO1 051320Z 34012KT 07/M05 A3015 RMK A01 T00681049  RH  043%=      5-min Rain = 0
KHO1 051321Z 33014KT 07/M05 A3015 RMK A01 T00671049  RH  043%=      5-min Rain = 0
KHO1 051322Z 34011KT 07/M05 A3015 RMK A01 T00671049  RH  043%=      5-min Rain = 0
KHO1 051323Z 34013KT 07/M05 A3015 RMK A01 T00671049  RH  043%=      5-min Rain = 0
KHO1 051324Z 34014KT 07/M05 A3015 RMK A01 T00671049  RH  043%=      5-min Rain = 0
KHO1 051325Z 33011KT 07/M05 A3015 RMK A01 T00671050  RH  043%=      5-min Rain = 0
KHO1 051326Z 33015G21KT 07/M05 A3015 RMK A01 T00671050  RH  043%=      5-min Rain = 0
KHO1 051327Z 33013KT 07/M05 A3015 RMK A01 T00671050  RH  043%=      5-min Rain = 0
KHO1 051328Z 33014KT 07/M05 A3015 RMK A01 T00681050  RH  043%=      5-min Rain = 0
KHO1 051329Z 33013KT 07/M05 A3015 RMK A01 T00681050  RH  043%=      5-min Rain = 0
KHO1 051330Z 34012G19KT 07/M05 A3015 RMK A01 T00681050  RH  043%=      5-min Rain = 0
KHO1 051331Z 34010KT 07/M05 A3016 RMK A01 T00681050  RH  043%=      5-min Rain = 0
KHO1 051332Z 34012G18KT 07/M05 A3016 RMK A01 T00681049  RH  043%=      5-min Rain = 0
KHO1 051333Z 33011KT 07/M05 A3016 RMK A01 T00681049  RH  043%=      5-min Rain = 0
KHO1 051334Z 34013KT 07/M05 A3016 RMK A01 T00681049  RH  043%=      5-min Rain = 0
KHO1 051335Z 33013KT 07/M05 A3016 RMK A01 T00681049  RH  043%=      5-min Rain = 0
KHO1 051336Z 34014KT 07/M05 A3016 RMK A01 T00681049  RH  043%=      5-min Rain = 0
KHO1 051337Z 34014KT 07/M05 A3016 RMK A01 T00691048  RH  043%=      5-min Rain = 0
KHO1 051338Z 34014KT 07/M05 A3016 RMK A01 T00691048  RH  043%=      5-min Rain = 0
KHO1 051339Z 34015KT 07/M05 A3016 RMK A01 T00691048  RH  043%=      5-min Rain = 0
KHO1 051340Z 34014G19KT 07/M05 A3016 RMK A01 T00701048  RH  043%=      5-min Rain = 0
KHO1 051341Z 33014KT 07/M05 A3016 RMK A01 T00701048  RH  043%=      5-min Rain = 0
KHO1 051342Z 34016KT 07/M05 A3016 RMK A01 T00701048  RH  043%=      5-min Rain = 0
KHO1 051343Z 33014KT 07/M05 A3016 RMK A01 T00701049  RH  043%=      5-min Rain = 0
KHO1 051344Z 33015KT 07/M05 A3016 RMK A01 T00701049  RH  042%=      5-min Rain = 0
KHO1 051345Z 34014KT 07/M05 A3016 RMK A01 T00701049  RH  042%=      5-min Rain = 0
KHO1 051346Z 34016KT 07/M05 A3016 RMK A01 T00701050  RH  042%=      5-min Rain = 0
KHO1 051347Z 34014KT 07/M05 A3016 RMK A01 T00701050  RH  042%=      5-min Rain = 0
KHO1 051348Z 34015KT 07/M05 A3016 RMK A01 T00701050  RH  042%=      5-min Rain = 0
KHO1 051349Z 33014KT 07/M05 A3017 RMK A01 T00701050  RH  042%=      5-min Rain = 0
KHO1 051350Z 34015KT 07/M05 A3017 RMK A01 T00701050  RH  042%=      5-min Rain = 0
KHO1 051351Z 34014KT 07/M05 A3017 RMK A01 T00701050  RH  042%=      5-min Rain = 0
KHO1 051352Z 33015KT 07/M05 A3017 RMK A01 T00701050  RH  042%=      5-min Rain = 0
KHO1 051353Z 34014G19KT 07/M05 A3017 RMK A01 T00701050  RH  042%=      5-min Rain = 0
KHO1 051354Z 34015KT 07/M05 A3017 RMK A01 T00711050  RH  042%=      5-min Rain = 0
KHO1 051355Z 34014G21KT 07/M05 A3017 RMK A01 T00711050  RH  042%=      5-min Rain = 0
KHO1 051356Z 34013KT 07/M05 A3017 RMK A01 T00711050  RH  042%=      5-min Rain = 0
KHO1 051357Z 34012G17KT 07/M05 A3017 RMK A01 T00711050  RH  042%=      5-min Rain = 0
KHO1 051358Z 33013G18KT 07/M05 A3017 RMK A01 T00711050  RH  042%=      5-min Rain = 0
KHO1 051359Z 33014KT 07/M05 A3017 RMK A01 T00711050  RH  042%=      5-min Rain = 0
KHO1 051400Z 33015KT 07/M05 A3017 RMK A01 T00721050  RH  042%=      5-min Rain = 0
KHO1 051401Z 34014KT 07/M05 A3017 RMK A01 T00721050  RH  042%=      5-min Rain = 0
KHO1 051402Z 34013KT 07/M05 A3017 RMK A01 T00731049  RH  042%=      5-min Rain = 0
KHO1 051403Z 33015KT 07/M05 A3017 RMK A01 T00731050  RH  041%=      5-min Rain = 0
KHO1 051404Z 33013KT 07/M05 A3017 RMK A01 T00731050  RH  041%=      5-min Rain = 0
KHO1 051405Z 34010KT 07/M05 A3018 RMK A01 T00731049  RH  041%=      5-min Rain = 0
KHO1 051406Z 33011KT 07/M05 A3017 RMK A01 T00731049  RH  041%=      5-min Rain = 0
KHO1 051407Z 34012KT 07/M05 A3017 RMK A01 T00741049  RH  041%=      5-min Rain = 0
KHO1 051408Z 34011KT 07/M05 A3018 RMK A01 T00741049  RH  041%=      5-min Rain = 0
KHO1 051409Z 34014KT 08/M05 A3018 RMK A01 T00751048  RH  041%=      5-min Rain = 0
KHO1 051410Z 34013KT 08/M05 A3018 RMK A01 T00751047  RH  041%=      5-min Rain = 0
KHO1 051411Z 34015KT 08/M05 A3018 RMK A01 T00761047  RH  041%=      5-min Rain = 0
KHO1 051412Z 34014KT 08/M05 A3018 RMK A01 T00761046  RH  042%=      5-min Rain = 0
KHO1 051413Z 34016KT 08/M05 A3018 RMK A01 T00771045  RH  042%=      5-min Rain = 0
KHO1 051414Z 34016KT 08/M04 A3017 RMK A01 T00771044  RH  042%=      5-min Rain = 0
KHO1 051415Z 34017KT 08/M04 A3017 RMK A01 T00781044  RH  042%=      5-min Rain = 0
KHO1 051416Z 34019KT 08/M04 A3017 RMK A01 T00791043  RH  042%=      5-min Rain = 0
KHO1 051417Z 34017KT 08/M04 A3017 RMK A01 T00801042  RH  042%=      5-min Rain = 0
KHO1 051418Z 34019KT 08/M04 A3017 RMK A01 T00801042  RH  042%=      5-min Rain = 0
KHO1 051419Z 34017KT 08/M04 A3018 RMK A01 T00811042  RH  042%=      5-min Rain = 0
KHO1 051420Z 34018KT 08/M04 A3018 RMK A01 T00811041  RH  042%=      5-min Rain = 0
KHO1 051421Z 34015KT 08/M04 A3018 RMK A01 T00821041  RH  042%=      5-min Rain = 0
KHO1 051422Z 34017KT 08/M04 A3018 RMK A01 T00831041  RH  042%=      5-min Rain = 0
KHO1 051423Z 34019KT 08/M04 A3018 RMK A01 T00831040  RH  041%=      5-min Rain = 0
KHO1 051424Z 34018KT 08/M04 A3018 RMK A01 T00841040  RH  041%=      5-min Rain = 0
KHO1 051425Z 34016KT 08/M04 A3018 RMK A01 T00841040  RH  041%=      5-min Rain = 0
KHO1 051426Z 35016KT 09/M04 A3018 RMK A01 T00851039  RH  041%=      5-min Rain = 0
KHO1 051427Z 34018KT 09/M04 A3018 RMK A01 T00851040  RH  041%=      5-min Rain = 0
KHO1 051428Z 34017G22KT 09/M04 A3018 RMK A01 T00851039  RH  041%=      5-min Rain = 0
KHO1 051429Z 34015KT 09/M04 A3018 RMK A01 T00861039  RH  041%=      5-min Rain = 0
KHO1 051430Z 34017KT 09/M04 A3018 RMK A01 T00861038  RH  041%=      5-min Rain = 0
KHO1 051431Z 34017KT 09/M04 A3018 RMK A01 T00861038  RH  041%=      5-min Rain = 0
KHO1 051432Z 34018KT 09/M04 A3018 RMK A01 T00861038  RH  041%=      5-min Rain = 0
KHO1 051433Z 35016KT 09/M04 A3018 RMK A01 T00871038  RH  041%=      5-min Rain = 0
KHO1 051434Z 35016G24KT 09/M04 A3018 RMK A01 T00871038  RH  041%=      5-min Rain = 0
KHO1 051435Z 35019KT 09/M04 A3018 RMK A01 T00871038  RH  041%=      5-min Rain = 0
KHO1 051436Z 35015KT 09/M04 A3018 RMK A01 T00871038  RH  041%=      5-min Rain = 0
KHO1 051437Z 35016KT 09/M04 A3019 RMK A01 T00871038  RH  041%=      5-min Rain = 0
KHO1 051438Z 35017KT 09/M04 A3019 RMK A01 T00881038  RH  041%=      5-min Rain = 0
KHO1 051439Z 35018KT 09/M04 A3018 RMK A01 T00881038  RH  041%=      5-min Rain = 0
KHO1 051440Z 34018KT 09/M04 A3019 RMK A01 T00881038  RH  041%=      5-min Rain = 0
KHO1 051441Z 34019KT 09/M04 A3019 RMK A01 T00881038  RH  041%=      5-min Rain = 0
KHO1 051442Z 34021KT 09/M04 A3018 RMK A01 T00891037  RH  041%=      5-min Rain = 0
KHO1 051443Z 34021G27KT 09/M04 A3018 RMK A01 T00891037  RH  041%=      5-min Rain = 0
KHO1 051444Z 34023G28KT 09/M04 A3018 RMK A01 T00891037  RH  041%=      5-min Rain = 0
KHO1 051445Z 35019G24KT 09/M04 A3019 RMK A01 T00891037  RH  041%=      5-min Rain = 0
KHO1 051446Z 35020KT 09/M04 A3019 RMK A01 T00891037  RH  041%=      5-min Rain = 0
KHO1 051447Z 35021KT 09/M04 A3019 RMK A01 T00891036  RH  041%=      5-min Rain = 0
KHO1 051448Z 35021KT 09/M04 A3019 RMK A01 T00901036  RH  041%=      5-min Rain = 0
KHO1 051449Z 35019G25KT 09/M04 A3019 RMK A01 T00901035  RH  041%=      5-min Rain = 0
KHO1 051450Z 35017KT 09/M04 A3019 RMK A01 T00911035  RH  041%=      5-min Rain = 0
KHO1 051451Z 35022G28KT 09/M03 A3019 RMK A01 T00911034  RH  041%=      5-min Rain = 0
KHO1 051452Z 35020G25KT 09/M03 A3019 RMK A01 T00911034  RH  041%=      5-min Rain = 0
KHO1 051453Z 35017KT 09/M03 A302 RMK A01 T00911033  RH  041%=      5-min Rain = 0
KHO1 051454Z 35015G20KT 09/M03 A302 RMK A01 T00931032  RH  041%=      5-min Rain = 0
KHO1 051455Z 35020G26KT 09/M03 A3019 RMK A01 T00931032  RH  041%=      5-min Rain = 0
KHO1 051456Z 35023G28KT 09/M03 A3019 RMK A01 T00931030  RH  042%=      5-min Rain = 0
KHO1 051457Z 35021G27KT 09/M03 A3019 RMK A01 T00931029  RH  042%=      5-min Rain = 0
KHO1 051458Z 36017KT 10/M03 A302 RMK A01 T00951028  RH  042%=      5-min Rain = 0
KHO1 051459Z 36017G22KT 10/M03 A302 RMK A01 T00961027  RH  042%=      5-min Rain = 0
KHO1 051500Z 36019KT 10/M03 A302 RMK A01 T00961026  RH  042%=      5-min Rain = 0
KHO1 051501Z 35016G21KT 10/M03 A302 RMK A01 T00961025  RH  042%=      5-min Rain = 0
KHO1 051502Z 35016KT 10/M02 A302 RMK A01 T00981024  RH  043%=      5-min Rain = 0
KHO1 051503Z 36015G23KT 10/M02 A302 RMK A01 T00991022  RH  043%=      5-min Rain = 0
KHO1 051504Z 00019KT 10/M02 A302 RMK A01 T00991021  RH  043%=      5-min Rain = 0
KHO1 051505Z 36019KT 10/M02 A302 RMK A01 T00991020  RH  043%=      5-min Rain = 0
KHO1 051506Z 35017KT 10/M02 A302 RMK A01 T00991020  RH  043%=      5-min Rain = 0
KHO1 051507Z 35013KT 10/M02 A302 RMK A01 T01011019  RH  043%=      5-min Rain = 0
KHO1 051508Z 35020KT 10/M02 A302 RMK A01 T01021017  RH  043%=      5-min Rain = 0
KHO1 051509Z 36023G33KT 10/M01 A302 RMK A01 T01021012  RH  045%=      5-min Rain = 0
KHO1 051510Z 36022G31KT 10/M01 A302 RMK A01 T01011008  RH  047%=      5-min Rain = 0
KHO1 051511Z 00022G30KT 10/M01 A302 RMK A01 T01021007  RH  047%=      5-min Rain = 0
KHO1 051512Z 00024KT 10/M01 A302 RMK A01 T01011007  RH  047%=      5-min Rain = 0
KHO1 051513Z 01020G26KT 10/M01 A302 RMK A01 T01011006  RH  047%=      5-min Rain = 0
KHO1 051514Z 36022G29KT 10/M01 A302 RMK A01 T01021006  RH  047%=      5-min Rain = 0
KHO1 051515Z 36019KT 10/M00 A3021 RMK A01 T01021004  RH  047%=      5-min Rain = 0
KHO1 051516Z 00021G27KT 10/M00 A3021 RMK A01 T01031004  RH  048%=      5-min Rain = 0
KHO1 051517Z 36021KT 10/M00 A3021 RMK A01 T01031003  RH  048%=      5-min Rain = 0
KHO1 051518Z 00022G31KT 10/M00 A302 RMK A01 T01021003  RH  048%=      5-min Rain = 0
KHO1 051519Z 35018G24KT 10/M00 A3021 RMK A01 T01031003  RH  048%=      5-min Rain = 0
KHO1 051520Z 36024G29KT 10/M00 A302 RMK A01 T01031003  RH  048%=      5-min Rain = 0
KHO1 051521Z 00023KT 10/M00 A3021 RMK A01 T01011004  RH  048%=      5-min Rain = 0
KHO1 051522Z 00020KT 10/M00 A3021 RMK A01 T01021004  RH  048%=      5-min Rain = 0
KHO1 051523Z 36017G23KT 10/M00 A3021 RMK A01 T01031004  RH  048%=      5-min Rain = 0
KHO1 051524Z 35018G23KT 10/M00 A3021 RMK A01 T01031004  RH  047%=      5-min Rain = 0
KHO1 051525Z 35019G26KT 10/M00 A3021 RMK A01 T01041004  RH  047%=      5-min Rain = 0
KHO1 051526Z 35020KT 10/M00 A3021 RMK A01 T01041004  RH  047%=      5-min Rain = 0
KHO1 051527Z 35019G25KT 10/M00 A3021 RMK A01 T01031004  RH  047%=      5-min Rain = 0
KHO1 051528Z 36019G24KT 10/M00 A3021 RMK A01 T01041004  RH  047%=      5-min Rain = 0
KHO1 051529Z 36020G25KT 11/M00 A3021 RMK A01 T01051003  RH  047%=      5-min Rain = 0
KHO1 051530Z 01022KT 11/M00 A3021 RMK A01 T01061003  RH  047%=      5-min Rain = 0
KHO1 051531Z 35017G23KT 11/M00 A3022 RMK A01 T01061003  RH  047%=      5-min Rain = 0
KHO1 051532Z 36016G22KT 11/M00 A3022 RMK A01 T01071003  RH  046%=      5-min Rain = 0
KHO1 051533Z 00016G22KT 11/M00 A3022 RMK A01 T01081003  RH  046%=      5-min Rain = 0
KHO1 051534Z 00021G26KT 11/M00 A3022 RMK A01 T01081002  RH  046%=      5-min Rain = 0
KHO1 051535Z 00015G23KT 11/M00 A3022 RMK A01 T01081001  RH  047%=      5-min Rain = 0
KHO1 051536Z 36019G24KT 11/M00 A3022 RMK A01 T01091001  RH  046%=      5-min Rain = 0
KHO1 051537Z 36019G29KT 11/00 A3022 RMK A01 T010900-0  RH  047%=      5-min Rain = 0
KHO1 051538Z 36021KT 11/00 A3022 RMK A01 T01080001  RH  047%=      5-min Rain = 0
KHO1 051539Z 00022G27KT 11/00 A3021 RMK A01 T01090002  RH  048%=      5-min Rain = 0
KHO1 051540Z 36024G30KT 11/00 A3022 RMK A01 T01090002  RH  048%=      5-min Rain = 0
KHO1 051541Z 36018G26KT 11/00 A3021 RMK A01 T01090003  RH  048%=      5-min Rain = 0
KHO1 051542Z 00021G28KT 11/00 A3021 RMK A01 T01110004  RH  048%=      5-min Rain = 0
KHO1 051543Z 01021KT 11/00 A3022 RMK A01 T01120004  RH  047%=      5-min Rain = 0
KHO1 051544Z 01026G32KT 11/00 A3021 RMK A01 T01120003  RH  047%=      5-min Rain = 0
KHO1 051545Z 01024KT 11/00 A3021 RMK A01 T01110003  RH  048%=      5-min Rain = 0
KHO1 051546Z 01024G29KT 11/00 A3021 RMK A01 T01100003  RH  048%=      5-min Rain = 0
KHO1 051547Z 01028G33KT 11/00 A3021 RMK A01 T01110004  RH  048%=      5-min Rain = 0
KHO1 051548Z 00023G29KT 11/00 A3021 RMK A01 T01090004  RH  048%=      5-min Rain = 0
KHO1 051549Z 35022G29KT 11/00 A3021 RMK A01 T01100004  RH  048%=      5-min Rain = 0
KHO1 051550Z 35024G29KT 11/00 A3021 RMK A01 T01110004  RH  048%=      5-min Rain = 0
KHO1 051551Z 36025G30KT 11/00 A3021 RMK A01 T01110004  RH  048%=      5-min Rain = 0
KHO1 051552Z 36023KT 11/01 A3022 RMK A01 T01100005  RH  048%=      5-min Rain = 0
KHO1 051553Z 36021G27KT 11/01 A3022 RMK A01 T01110005  RH  048%=      5-min Rain = 0
KHO1 051554Z 00019KT 11/01 A3022 RMK A01 T01130006  RH  048%=      5-min Rain = 0
KHO1 051555Z 00022G31KT 11/01 A3022 RMK A01 T01130005  RH  047%=      5-min Rain = 0
KHO1 051556Z 00023G32KT 11/01 A3022 RMK A01 T01120005  RH  048%=      5-min Rain = 0
KHO1 051557Z 36022G28KT 11/01 A3022 RMK A01 T01110005  RH  048%=      5-min Rain = 0
KHO1 051558Z 01023G30KT 11/01 A3022 RMK A01 T01120006  RH  048%=      5-min Rain = 0
KHO1 051559Z 01028KT 11/01 A3021 RMK A01 T01110005  RH  048%=      5-min Rain = 0
KHO1 051600Z 00025G31KT 11/01 A3022 RMK A01 T01100005  RH  049%=      5-min Rain = 0
KHO1 051601Z 00018KT 11/01 A3022 RMK A01 T01110007  RH  048%=      5-min Rain = 0
KHO1 051602Z 01021G26KT 11/01 A3022 RMK A01 T01130007  RH  048%=      5-min Rain = 0
KHO1 051603Z 00018KT 11/01 A3022 RMK A01 T01140007  RH  048%=      5-min Rain = 0
KHO1 051604Z 01017G23KT 12/01 A3022 RMK A01 T01150008  RH  048%=      5-min Rain = 0
KHO1 051605Z 00019G24KT 12/01 A3022 RMK A01 T01170007  RH  047%=      5-min Rain = 0
KHO1 051606Z 35022KT 12/01 A3022 RMK A01 T01180007  RH  046%=      5-min Rain = 0
KHO1 051607Z 00023G28KT 12/01 A3022 RMK A01 T01160006  RH  047%=      5-min Rain = 0
KHO1 051608Z 00025KT 12/01 A3022 RMK A01 T01150005  RH  047%=      5-min Rain = 0
KHO1 051609Z 00023KT 11/01 A3022 RMK A01 T01140006  RH  047%=      5-min Rain = 0
KHO1 051610Z 00024G30KT 11/01 A3022 RMK A01 T01140006  RH  047%=      5-min Rain = 0
KHO1 051611Z 35023G28KT 11/01 A3022 RMK A01 T01140006  RH  048%=      5-min Rain = 0
KHO1 051612Z 36021G26KT 12/01 A3022 RMK A01 T01150006  RH  047%=      5-min Rain = 0
KHO1 051613Z 35023G33KT 12/01 A3022 RMK A01 T01150006  RH  047%=      5-min Rain = 0
KHO1 051614Z 35022KT 12/01 A3022 RMK A01 T01150005  RH  047%=      5-min Rain = 0
KHO1 051615Z 35021KT 12/01 A3022 RMK A01 T01160006  RH  047%=      5-min Rain = 0
KHO1 051616Z 35025G30KT 12/01 A3021 RMK A01 T01160006  RH  047%=      5-min Rain = 0
KHO1 051617Z 00025G34KT 12/01 A3022 RMK A01 T01160005  RH  046%=      5-min Rain = 0
KHO1 051618Z 35020G26KT 12/01 A3022 RMK A01 T01160006  RH  047%=      5-min Rain = 0
KHO1 051619Z 00023G28KT 12/01 A3022 RMK A01 T01170006  RH  046%=      5-min Rain = 0
KHO1 051620Z 01022G30KT 12/01 A3022 RMK A01 T01180006  RH  046%=      5-min Rain = 0
KHO1 051621Z 36022G33KT 12/01 A3022 RMK A01 T01180006  RH  046%=      5-min Rain = 0
KHO1 051622Z 01027G32KT 12/01 A3021 RMK A01 T01180006  RH  046%=      5-min Rain = 0
KHO1 051623Z 35024G31KT 12/01 A3021 RMK A01 T01180006  RH  046%=      5-min Rain = 0
KHO1 051624Z 36025G34KT 12/01 A3022 RMK A01 T01180006  RH  046%=      5-min Rain = 0
KHO1 051625Z 00025G31KT 12/01 A3022 RMK A01 T01160006  RH  047%=      5-min Rain = 0
KHO1 051626Z 01024G30KT 12/01 A3021 RMK A01 T01170006  RH  047%=      5-min Rain = 0
KHO1 051627Z 36024G30KT 12/01 A3021 RMK A01 T01180006  RH  046%=      5-min Rain = 0
KHO1 051628Z 00029G36KT 12/01 A3021 RMK A01 T01180005  RH  046%=      5-min Rain = 0
KHO1 051629Z 00025G32KT 12/01 A3021 RMK A01 T01170006  RH  046%=      5-min Rain = 0
KHO1 051630Z 00026G31KT 12/01 A3021 RMK A01 T01180006  RH  046%=      5-min Rain = 0
KHO1 051631Z 36025G31KT 12/01 A3021 RMK A01 T01180006  RH  046%=      5-min Rain = 0
KHO1 051632Z 35020KT 12/01 A3022 RMK A01 T01180006  RH  046%=      5-min Rain = 0
KHO1 051633Z 36026KT 12/01 A3021 RMK A01 T01200006  RH  046%=      5-min Rain = 0
KHO1 051634Z 00019KT 12/01 A3022 RMK A01 T01210006  RH  045%=      5-min Rain = 0
KHO1 051635Z 35024G30KT 12/01 A3021 RMK A01 T01230005  RH  045%=      5-min Rain = 0
KHO1 051636Z 35022G28KT 12/00 A3021 RMK A01 T01220004  RH  044%=      5-min Rain = 0
KHO1 051637Z 35022G31KT 12/00 A3021 RMK A01 T01220004  RH  044%=      5-min Rain = 0
KHO1 051638Z 01021G27KT 12/01 A3022 RMK A01 T01240005  RH  044%=      5-min Rain = 0
KHO1 051639Z 01027G34KT 13/00 A3021 RMK A01 T01260004  RH  043%=      5-min Rain = 0
KHO1 051640Z 01025G30KT 12/00 A3021 RMK A01 T01240003  RH  044%=      5-min Rain = 0
KHO1 051641Z 00023G31KT 12/00 A3021 RMK A01 T01240004  RH  044%=      5-min Rain = 0
KHO1 051642Z 01027G33KT 12/00 A3021 RMK A01 T01240003  RH  044%=      5-min Rain = 0
KHO1 051643Z 00023G29KT 12/00 A3022 RMK A01 T01230004  RH  044%=      5-min Rain = 0
KHO1 051644Z 36022G29KT 13/00 A3022 RMK A01 T01250004  RH  044%=      5-min Rain = 0
KHO1 051645Z 00020G28KT 13/01 A3022 RMK A01 T01270005  RH  043%=      5-min Rain = 0
KHO1 051646Z 01025G33KT 13/00 A3022 RMK A01 T01290004  RH  042%=      5-min Rain = 0
KHO1 051647Z 01030G37KT 13/00 A3021 RMK A01 T01270003  RH  042%=      5-min Rain = 0
KHO1 051648Z 00026G34KT 13/00 A3022 RMK A01 T01260003  RH  043%=      5-min Rain = 0
KHO1 051649Z 00028G33KT 13/00 A3022 RMK A01 T01260003  RH  043%=      5-min Rain = 0
KHO1 051650Z 36030G36KT 13/00 A3021 RMK A01 T01250003  RH  043%=      5-min Rain = 0
KHO1 051651Z 01028G33KT 13/00 A3022 RMK A01 T01250003  RH  043%=      5-min Rain = 0
KHO1 051652Z 00030KT 12/00 A3021 RMK A01 T01240004  RH  044%=      5-min Rain = 0
KHO1 051653Z 00027G34KT 13/01 A3022 RMK A01 T01250005  RH  044%=      5-min Rain = 0
KHO1 051654Z 00021G29KT 13/01 A3022 RMK A01 T01260005  RH  043%=      5-min Rain = 0
KHO1 051655Z 36024G31KT 13/00 A3022 RMK A01 T01260004  RH  043%=      5-min Rain = 0
KHO1 051656Z 00024G31KT 13/01 A3022 RMK A01 T01270005  RH  043%=      5-min Rain = 0
KHO1 051657Z 00027KT 13/00 A3022 RMK A01 T01270004  RH  043%=      5-min Rain = 0
KHO1 051658Z 00028G33KT 13/00 A3022 RMK A01 T01260004  RH  043%=      5-min Rain = 0
KHO1 051659Z 01026KT 13/00 A3022 RMK A01 T01250004  RH  043%=      5-min Rain = 0
KHO1 051700Z 00027G32KT 13/01 A3022 RMK A01 T01260005  RH  043%=      5-min Rain = 0
KHO1 051701Z 01027G34KT 13/01 A3022 RMK A01 T01260005  RH  043%=      5-min Rain = 0
KHO1 051702Z 01026G31KT 13/01 A3022 RMK A01 T01270006  RH  044%=      5-min Rain = 0
KHO1 051703Z 02022G27KT 13/01 A3022 RMK A01 T01300007  RH  043%=      5-min Rain = 0
KHO1 051704Z 01021G27KT 13/01 A3023 RMK A01 T01320007  RH  042%=      5-min Rain = 0
KHO1 051705Z 02024G34KT 13/01 A3022 RMK A01 T01330006  RH  042%=      5-min Rain = 0
KHO1 051706Z 01024KT 13/01 A3022 RMK A01 T01330006  RH  042%=      5-min Rain = 0
KHO1 051707Z 01023G29KT 13/01 A3023 RMK A01 T01320006  RH  042%=      5-min Rain = 0
KHO1 051708Z 01022G27KT 13/01 A3023 RMK A01 T01300006  RH  043%=      5-min Rain = 0
KHO1 051709Z 01024G29KT 13/01 A3023 RMK A01 T01300007  RH  043%=      5-min Rain = 0
KHO1 051710Z 01026G31KT 13/01 A3023 RMK A01 T01310007  RH  043%=      5-min Rain = 0
KHO1 051711Z 01023G28KT 13/01 A3023 RMK A01 T01300007  RH  043%=      5-min Rain = 0
KHO1 051712Z 01021G26KT 13/01 A3023 RMK A01 T01330008  RH  043%=      5-min Rain = 0
KHO1 051713Z 01025KT 13/01 A3023 RMK A01 T01340008  RH  042%=      5-min Rain = 0
KHO1 051714Z 00022G29KT 13/01 A3023 RMK A01 T01330009  RH  043%=      5-min Rain = 0
KHO1 051715Z 02019G24KT 14/01 A3023 RMK A01 T01350010  RH  042%=      5-min Rain = 0
KHO1 051716Z 02022G27KT 14/01 A3023 RMK A01 T01380009  RH  041%=      5-min Rain = 0
KHO1 051717Z 01030G38KT 14/01 A3022 RMK A01 T01350008  RH  042%=      5-min Rain = 0
KHO1 051718Z 01027G33KT 13/01 A3023 RMK A01 T01310008  RH  043%=      5-min Rain = 0
KHO1 051719Z 01024G30KT 13/01 A3023 RMK A01 T01320009  RH  043%=      5-min Rain = 0
KHO1 051720Z 01021G26KT 13/01 A3023 RMK A01 T01330010  RH  043%=      5-min Rain = 0
KHO1 051721Z 00026G31KT 13/01 A3023 RMK A01 T01340009  RH  043%=      5-min Rain = 0
KHO1 051722Z 01027KT 13/01 A3023 RMK A01 T01310009  RH  044%=      5-min Rain = 0
KHO1 051723Z 01026G33KT 13/01 A3023 RMK A01 T01290010  RH  044%=      5-min Rain = 0
KHO1 051724Z 02024G30KT 13/01 A3023 RMK A01 T01310010  RH  044%=      5-min Rain = 0
KHO1 051725Z 02020KT 13/01 A3024 RMK A01 T01320011  RH  044%=      5-min Rain = 0
KHO1 051726Z 02025G30KT 13/01 A3023 RMK A01 T01340011  RH  043%=      5-min Rain = 0
KHO1 051727Z 00025KT 13/01 A3024 RMK A01 T01330010  RH  043%=      5-min Rain = 0
KHO1 051728Z 01023G29KT 13/01 A3023 RMK A01 T01310011  RH  044%=      5-min Rain = 0
KHO1 051729Z 01027G34KT 13/01 A3023 RMK A01 T01320011  RH  044%=      5-min Rain = 0
KHO1 051730Z 00029G37KT 13/01 A3023 RMK A01 T01300012  RH  044%=      5-min Rain = 0
KHO1 051731Z 00026G33KT 13/01 A3023 RMK A01 T01280012  RH  045%=      5-min Rain = 0
KHO1 051732Z 00025G30KT 13/01 A3023 RMK A01 T01280013  RH  045%=      5-min Rain = 0
KHO1 051733Z 01029KT 13/01 A3023 RMK A01 T01280012  RH  045%=      5-min Rain = 0
KHO1 051734Z 00024G35KT 13/01 A3023 RMK A01 T01290013  RH  045%=      5-min Rain = 0
KHO1 051735Z 01021G30KT 13/01 A3023 RMK A01 T01310013  RH  045%=      5-min Rain = 0
KHO1 051736Z 01021G26KT 13/01 A3023 RMK A01 T01330014  RH  044%=      5-min Rain = 0
KHO1 051737Z 00024G31KT 14/01 A3023 RMK A01 T01350014  RH  044%=      5-min Rain = 0
KHO1 051738Z 00022G29KT 13/01 A3024 RMK A01 T01320014  RH  044%=      5-min Rain = 0
KHO1 051739Z 00025G30KT 13/01 A3023 RMK A01 T01310014  RH  045%=      5-min Rain = 0
KHO1 051740Z 01028KT 13/01 A3024 RMK A01 T01270013  RH  046%=      5-min Rain = 0
KHO1 051741Z 01027G36KT 13/01 A3024 RMK A01 T01270014  RH  046%=      5-min Rain = 0
KHO1 051742Z 01027G33KT 13/01 A3024 RMK A01 T01280014  RH  046%=      5-min Rain = 0
KHO1 051743Z 02025G30KT 13/01 A3024 RMK A01 T01280014  RH  046%=      5-min Rain = 0
KHO1 051744Z 02024KT 13/02 A3024 RMK A01 T01290016  RH  046%=      5-min Rain = 0
KHO1 051745Z 01022KT 13/02 A3024 RMK A01 T01310016  RH  045%=      5-min Rain = 0
KHO1 051746Z 00028G37KT 13/02 A3024 RMK A01 T01310015  RH  045%=      5-min Rain = 0
KHO1 051747Z 01025G32KT 13/02 A3024 RMK A01 T01290016  RH  046%=      5-min Rain = 0
KHO1 051748Z 01023KT 13/02 A3024 RMK A01 T01320017  RH  045%=      5-min Rain = 0
KHO1 051749Z 00028G33KT 13/02 A3024 RMK A01 T01340016  RH  045%=      5-min Rain = 0
KHO1 051750Z 00025G30KT 13/02 A3024 RMK A01 T01310015  RH  045%=      5-min Rain = 0
KHO1 051751Z 00023G28KT 13/01 A3025 RMK A01 T01280014  RH  046%=      5-min Rain = 0
KHO1 051752Z 01023KT 13/01 A3025 RMK A01 T01270014  RH  046%=      5-min Rain = 0
KHO1 051753Z 02024G29KT 13/02 A3024 RMK A01 T01280015  RH  046%=      5-min Rain = 0
KHO1 051754Z 02022G29KT 13/02 A3024 RMK A01 T01290015  RH  046%=      5-min Rain = 0
KHO1 051755Z 00021G27KT 13/01 A3025 RMK A01 T01290014  RH  046%=      5-min Rain = 0
KHO1 051756Z 00024KT 13/01 A3025 RMK A01 T01280014  RH  046%=      5-min Rain = 0
KHO1 051757Z 01021G26KT 13/01 A3025 RMK A01 T01270014  RH  046%=      5-min Rain = 0
KHO1 051758Z 01025G30KT 13/01 A3025 RMK A01 T01270013  RH  046%=      5-min Rain = 0
KHO1 051759Z 01022G31KT 13/01 A3025 RMK A01 T01250012  RH  046%=      5-min Rain = 0
KHO1 051800Z 02024KT 13/01 A3025 RMK A01 T01260014  RH  046%=      5-min Rain = 0
KHO1 051801Z 03023KT 13/02 A3025 RMK A01 T01280015  RH  046%=      5-min Rain = 0
KHO1 051802Z 02024G30KT 13/01 A3025 RMK A01 T01310014  RH  045%=      5-min Rain = 0
KHO1 051803Z 02018G23KT 13/02 A3025 RMK A01 T01320015  RH  045%=      5-min Rain = 0
KHO1 051804Z 01017G22KT 14/02 A3025 RMK A01 T01390017  RH  044%=      5-min Rain = 0
KHO1 051805Z 00018G24KT 14/02 A3026 RMK A01 T01420015  RH  042%=      5-min Rain = 0
KHO1 051806Z 01021KT 14/01 A3025 RMK A01 T01360012  RH  043%=      5-min Rain = 0
KHO1 051807Z 02021KT 13/01 A3026 RMK A01 T01330013  RH  044%=      5-min Rain = 0
KHO1 051808Z 02019G27KT 14/01 A3026 RMK A01 T01350014  RH  044%=      5-min Rain = 0
KHO1 051809Z 03023KT 14/02 A3025 RMK A01 T01350015  RH  044%=      5-min Rain = 0
KHO1 051810Z 02022G27KT 14/01 A3026 RMK A01 T01360013  RH  043%=      5-min Rain = 0
KHO1 051811Z 02019KT 13/01 A3026 RMK A01 T01340014  RH  044%=      5-min Rain = 0
KHO1 051812Z 02022KT 14/02 A3026 RMK A01 T01360015  RH  044%=      5-min Rain = 0
KHO1 051813Z 02025G32KT 14/01 A3026 RMK A01 T01360014  RH  043%=      5-min Rain = 0
KHO1 051814Z 02023G31KT 13/01 A3025 RMK A01 T01330013  RH  044%=      5-min Rain = 0
KHO1 051815Z 02020G28KT 13/01 A3026 RMK A01 T01330014  RH  044%=      5-min Rain = 0
KHO1 051816Z 01021KT 14/02 A3026 RMK A01 T01350015  RH  044%=      5-min Rain = 0
KHO1 051817Z 02020G28KT 14/02 A3026 RMK A01 T01390016  RH  043%=      5-min Rain = 0
KHO1 051818Z 01024G31KT 14/01 A3025 RMK A01 T01390013  RH  042%=      5-min Rain = 0
KHO1 051819Z 01023G29KT 14/01 A3026 RMK A01 T01350013  RH  043%=      5-min Rain = 0
KHO1 051820Z 01021G28KT 13/01 A3026 RMK A01 T01310013  RH  045%=      5-min Rain = 0
KHO1 051821Z 02022KT 13/02 A3026 RMK A01 T01320015  RH  045%=      5-min Rain = 0
KHO1 051822Z 03022G27KT 13/01 A3026 RMK A01 T01330014  RH  044%=      5-min Rain = 0
KHO1 051823Z 02024G34KT 13/01 A3026 RMK A01 T01330014  RH  044%=      5-min Rain = 0
KHO1 051824Z 03026KT 13/01 A3026 RMK A01 T01310014  RH  045%=      5-min Rain = 0
KHO1 051825Z 03027G33KT 13/01 A3026 RMK A01 T01280014  RH  046%=      5-min Rain = 0
KHO1 051826Z 03023G28KT 13/02 A3026 RMK A01 T01250015  RH  047%=      5-min Rain = 0
KHO1 051827Z 02021G26KT 12/02 A3026 RMK A01 T01240016  RH  047%=      5-min Rain = 0
KHO1 051828Z 03023G31KT 13/02 A3026 RMK A01 T01270017  RH  047%=      5-min Rain = 0
KHO1 051829Z 03024G31KT 13/02 A3026 RMK A01 T01270016  RH  047%=      5-min Rain = 0
KHO1 051830Z 02024KT 13/02 A3027 RMK A01 T01270016  RH  047%=      5-min Rain = 0
KHO1 051831Z 02023KT 13/02 A3026 RMK A01 T01250016  RH  047%=      5-min Rain = 0
KHO1 051832Z 03025KT 12/02 A3026 RMK A01 T01240016  RH  048%=      5-min Rain = 0
KHO1 051833Z 03025G31KT 12/02 A3026 RMK A01 T01230016  RH  048%=      5-min Rain = 0
KHO1 051834Z 02026KT 12/02 A3027 RMK A01 T01210016  RH  049%=      5-min Rain = 0
KHO1 051835Z 02023KT 12/02 A3027 RMK A01 T01220019  RH  049%=      5-min Rain = 0
KHO1 051836Z 03024G31KT 13/02 A3026 RMK A01 T01270018  RH  047%=      5-min Rain = 0
KHO1 051837Z 04023G30KT 13/02 A3026 RMK A01 T01300017  RH  046%=      5-min Rain = 0
KHO1 051838Z 03025G31KT 13/02 A3026 RMK A01 T01330017  RH  045%=      5-min Rain = 0
KHO1 051839Z 01024G31KT 13/02 A3026 RMK A01 T01340015  RH  044%=      5-min Rain = 0
KHO1 051840Z 02023G29KT 13/01 A3026 RMK A01 T01320014  RH  045%=      5-min Rain = 0
KHO1 051841Z 03021G26KT 13/01 A3026 RMK A01 T01340014  RH  044%=      5-min Rain = 0
KHO1 051842Z 03018KT 13/01 A3027 RMK A01 T01340012  RH  043%=      5-min Rain = 0
KHO1 051843Z 03025G33KT 14/01 A3026 RMK A01 T01360010  RH  042%=      5-min Rain = 0
KHO1 051844Z 02025G30KT 13/01 A3026 RMK A01 T01340009  RH  043%=      5-min Rain = 0
KHO1 051845Z 01022G29KT 13/01 A3026 RMK A01 T01290011  RH  044%=      5-min Rain = 0
KHO1 051846Z 03025KT 13/01 A3026 RMK A01 T01280012  RH  045%=      5-min Rain = 0
KHO1 051847Z 03027G33KT 13/01 A3026 RMK A01 T01260012  RH  046%=      5-min Rain = 0
KHO1 051848Z 02024KT 13/01 A3026 RMK A01 T01250012  RH  046%=      5-min Rain = 0
KHO1 051849Z 02021KT 13/01 A3026 RMK A01 T01250012  RH  046%=      5-min Rain = 0
KHO1 051850Z 02017G22KT 12/01 A3027 RMK A01 T01230013  RH  047%=      5-min Rain = 0
KHO1 051851Z 03025KT 12/01 A3026 RMK A01 T01230013  RH  047%=      5-min Rain = 0
KHO1 051852Z 02023G30KT 12/02 A3026 RMK A01 T01240015  RH  047%=      5-min Rain = 0
KHO1 051853Z 02022G27KT 13/01 A3026 RMK A01 T01270014  RH  046%=      5-min Rain = 0
KHO1 051854Z 02019KT 13/01 A3026 RMK A01 T01250013  RH  047%=      5-min Rain = 0
KHO1 051855Z 02018G24KT 12/01 A3026 RMK A01 T01240014  RH  047%=      5-min Rain = 0
KHO1 051856Z 01019G24KT 13/01 A3026 RMK A01 T01250014  RH  047%=      5-min Rain = 0
KHO1 051857Z 01021KT 12/01 A3026 RMK A01 T01240014  RH  047%=      5-min Rain = 0
KHO1 051858Z 02020G25KT 12/01 A3027 RMK A01 T01230014  RH  047%=      5-min Rain = 0
KHO1 051859Z 02021KT 12/01 A3026 RMK A01 T01230014  RH  047%=      5-min Rain = 0
KHO1 051900Z 02019G25KT 13/02 A3026 RMK A01 T01250015  RH  047%=      5-min Rain = 0
KHO1 051901Z 02023G28KT 13/02 A3026 RMK A01 T01280016  RH  046%=      5-min Rain = 0
KHO1 051902Z 02021G27KT 13/02 A3026 RMK A01 T01280015  RH  046%=      5-min Rain = 0
KHO1 051903Z 00020KT 13/02 A3026 RMK A01 T01270015  RH  046%=      5-min Rain = 0
KHO1 051904Z 02021G26KT 13/02 A3026 RMK A01 T01260015  RH  047%=      5-min Rain = 0
KHO1 051905Z 01025KT 13/01 A3026 RMK A01 T01260014  RH  047%=      5-min Rain = 0
KHO1 051906Z 01021KT 13/02 A3026 RMK A01 T01270016  RH  047%=      5-min Rain = 0
KHO1 051907Z 02024KT 13/02 A3026 RMK A01 T01300016  RH  046%=      5-min Rain = 0
KHO1 051908Z 02019G25KT 13/02 A3026 RMK A01 T01300017  RH  046%=      5-min Rain = 0
KHO1 051909Z 03018G23KT 14/02 A3026 RMK A01 T01380019  RH  045%=      5-min Rain = 0
KHO1 051910Z 02024G29KT 14/02 A3025 RMK A01 T01390015  RH  043%=      5-min Rain = 0
KHO1 051911Z 01022KT 13/01 A3026 RMK A01 T01340014  RH  044%=      5-min Rain = 0
KHO1 051912Z 02022G28KT 13/02 A3026 RMK A01 T01310016  RH  045%=      5-min Rain = 0
KHO1 051913Z 02025G31KT 13/01 A3025 RMK A01 T01300014  RH  045%=      5-min Rain = 0
KHO1 051914Z 03020G25KT 13/02 A3026 RMK A01 T01310017  RH  046%=      5-min Rain = 0
KHO1 051915Z 03024KT 14/02 A3026 RMK A01 T01350017  RH  044%=      5-min Rain = 0
KHO1 051916Z 03025KT 13/01 A3025 RMK A01 T01320014  RH  045%=      5-min Rain = 0
KHO1 051917Z 02020G27KT 13/01 A3026 RMK A01 T01290014  RH  045%=      5-min Rain = 0
KHO1 051918Z 02019KT 13/01 A3026 RMK A01 T01290014  RH  045%=      5-min Rain = 0
KHO1 051919Z 02019KT 13/02 A3026 RMK A01 T01280015  RH  046%=      5-min Rain = 0
KHO1 051920Z 02019G24KT 13/02 A3026 RMK A01 T01280016  RH  046%=      5-min Rain = 0
KHO1 051921Z 02019KT 13/02 A3026 RMK A01 T01280016  RH  046%=      5-min Rain = 0
KHO1 051922Z 01021G27KT 13/02 A3026 RMK A01 T01280015  RH  046%=      5-min Rain = 0
KHO1 051923Z 01019G25KT 13/02 A3026 RMK A01 T01290016  RH  046%=      5-min Rain = 0
KHO1 051924Z 02021G27KT 13/02 A3026 RMK A01 T01320017  RH  046%=      5-min Rain = 0
KHO1 051925Z 02017KT 13/02 A3026 RMK A01 T01340017  RH  045%=      5-min Rain = 0
KHO1 051926Z 02020G26KT 14/02 A3026 RMK A01 T01360015  RH  044%=      5-min Rain = 0
KHO1 051927Z 01018G23KT 13/01 A3026 RMK A01 T01330014  RH  044%=      5-min Rain = 0
KHO1 051928Z 02016KT 13/01 A3026 RMK A01 T01310014  RH  045%=      5-min Rain = 0
KHO1 051929Z 02015G20KT 13/02 A3026 RMK A01 T01320016  RH  045%=      5-min Rain = 0
KHO1 051930Z 01012KT 13/02 A3026 RMK A01 T01340016  RH  045%=      5-min Rain = 0
KHO1 051931Z 01019G24KT 13/02 A3026 RMK A01 T01340015  RH  044%=      5-min Rain = 0
KHO1 051932Z 02021KT 13/02 A3026 RMK A01 T01330016  RH  045%=      5-min Rain = 0
KHO1 051933Z 02022G30KT 13/02 A3025 RMK A01 T01320016  RH  045%=      5-min Rain = 0
KHO1 051934Z 02020KT 13/02 A3025 RMK A01 T01320018  RH  046%=      5-min Rain = 0
KHO1 051935Z 02020G29KT 14/02 A3026 RMK A01 T01350016  RH  044%=      5-min Rain = 0
KHO1 051936Z 01020KT 13/01 A3026 RMK A01 T01310013  RH  045%=      5-min Rain = 0
KHO1 051937Z 01017KT 13/01 A3026 RMK A01 T01290014  RH  046%=      5-min Rain = 0
KHO1 051938Z 02020G25KT 13/01 A3026 RMK A01 T01330014  RH  044%=      5-min Rain = 0
KHO1 051939Z 03026KT 13/01 A3025 RMK A01 T01330013  RH  044%=      5-min Rain = 0
KHO1 051940Z 03023KT 13/01 A3025 RMK A01 T01330012  RH  044%=      5-min Rain = 0
KHO1 051941Z 02017KT 13/01 A3026 RMK A01 T01330013  RH  044%=      5-min Rain = 0
KHO1 051942Z 01017G24KT 13/02 A3026 RMK A01 T01340015  RH  044%=      5-min Rain = 0
KHO1 051943Z 01019KT 13/01 A3026 RMK A01 T01340014  RH  044%=      5-min Rain = 0
KHO1 051944Z 01021G26KT 13/01 A3026 RMK A01 T01310012  RH  044%=      5-min Rain = 0
KHO1 051945Z 02018G23KT 13/01 A3025 RMK A01 T01290012  RH  045%=      5-min Rain = 0
KHO1 051946Z 01020KT 13/01 A3025 RMK A01 T01280011  RH  045%=      5-min Rain = 0
KHO1 051947Z 01018KT 13/01 A3025 RMK A01 T01290011  RH  045%=      5-min Rain = 0
KHO1 051948Z 02020G26KT 13/01 A3025 RMK A01 T01300012  RH  044%=      5-min Rain = 0
KHO1 051949Z 02021G26KT 13/01 A3025 RMK A01 T01310011  RH  044%=      5-min Rain = 0
KHO1 051950Z 02023G29KT 13/01 A3025 RMK A01 T01290011  RH  044%=      5-min Rain = 0
KHO1 051951Z 02018KT 13/01 A3026 RMK A01 T01280012  RH  045%=      5-min Rain = 0
KHO1 051952Z 02022G31KT 13/01 A3026 RMK A01 T01290012  RH  045%=      5-min Rain = 0
KHO1 051953Z 02022G27KT 13/01 A3025 RMK A01 T01270012  RH  045%=      5-min Rain = 0
KHO1 051954Z 02022G27KT 12/01 A3026 RMK A01 T01240011  RH  046%=      5-min Rain = 0
KHO1 051955Z 02022G27KT 12/01 A3025 RMK A01 T01230013  RH  047%=      5-min Rain = 0
KHO1 051956Z 02025KT 12/01 A3025 RMK A01 T01230013  RH  047%=      5-min Rain = 0
KHO1 051957Z 02019G24KT 12/01 A3026 RMK A01 T01230014  RH  047%=      5-min Rain = 0
KHO1 051958Z 02024G29KT 12/01 A3025 RMK A01 T01240014  RH  047%=      5-min Rain = 0
KHO1 051959Z 01023G28KT 12/01 A3025 RMK A01 T01240014  RH  047%=      5-min Rain = 0
KHO1 052000Z 02022KT 12/01 A3025 RMK A01 T01240014  RH  047%=      5-min Rain = 0
KHO1 052001Z 02021G28KT 12/02 A3025 RMK A01 T01240015  RH  047%=      5-min Rain = 0
KHO1 052002Z 01018G24KT 13/02 A3025 RMK A01 T01250016  RH  047%=      5-min Rain = 0
KHO1 052003Z 01019G26KT 13/02 A3025 RMK A01 T01270015  RH  047%=      5-min Rain = 0
KHO1 052004Z 01018KT 13/02 A3025 RMK A01 T01270016  RH  047%=      5-min Rain = 0
KHO1 052005Z 03024G29KT 13/02 A3025 RMK A01 T01300015  RH  046%=      5-min Rain = 0
KHO1 052006Z 02020G26KT 13/02 A3025 RMK A01 T01290015  RH  046%=      5-min Rain = 0
KHO1 052007Z 02022G27KT 13/01 A3025 RMK A01 T01270014  RH  046%=      5-min Rain = 0
KHO1 052008Z 02018KT 13/02 A3025 RMK A01 T01270015  RH  047%=      5-min Rain = 0
KHO1 052009Z 01021G26KT 13/02 A3025 RMK A01 T01280015  RH  046%=      5-min Rain = 0
KHO1 052010Z 01020KT 13/02 A3025 RMK A01 T01250015  RH  047%=      5-min Rain = 0
KHO1 052011Z 01018KT 12/02 A3025 RMK A01 T01240016  RH  048%=      5-min Rain = 0
KHO1 052012Z 02014KT 12/02 A3025 RMK A01 T01240016  RH  048%=      5-min Rain = 0
KHO1 052013Z 03019G24KT 13/02 A3025 RMK A01 T01280015  RH  046%=      5-min Rain = 0
KHO1 052014Z 01021G28KT 13/01 A3024 RMK A01 T01280013  RH  045%=      5-min Rain = 0
KHO1 052015Z 01019G24KT 13/01 A3025 RMK A01 T01270012  RH  046%=      5-min Rain = 0
KHO1 052016Z 01020KT 13/01 A3025 RMK A01 T01270011  RH  045%=      5-min Rain = 0
KHO1 052017Z 00017G22KT 13/01 A3025 RMK A01 T01260012  RH  046%=      5-min Rain = 0
KHO1 052018Z 01020KT 13/01 A3025 RMK A01 T01280011  RH  045%=      5-min Rain = 0
KHO1 052019Z 01023G28KT 13/01 A3024 RMK A01 T01280009  RH  044%=      5-min Rain = 0
KHO1 052020Z 01020G25KT 13/01 A3025 RMK A01 T01290009  RH  044%=      5-min Rain = 0
KHO1 052021Z 00019G24KT 13/01 A3025 RMK A01 T01320010  RH  043%=      5-min Rain = 0
KHO1 052022Z 02020G25KT 13/01 A3025 RMK A01 T01310010  RH  044%=      5-min Rain = 0
KHO1 052023Z 02017KT 13/01 A3025 RMK A01 T01300010  RH  044%=      5-min Rain = 0
KHO1 052024Z 02018G24KT 13/01 A3025 RMK A01 T01330012  RH  044%=      5-min Rain = 0
KHO1 052025Z 02019G24KT 14/01 A3024 RMK A01 T01360011  RH  043%=      5-min Rain = 0
KHO1 052026Z 01022G28KT 14/01 A3025 RMK A01 T01360012  RH  043%=      5-min Rain = 0
KHO1 052027Z 00019KT 13/01 A3025 RMK A01 T01330012  RH  044%=      5-min Rain = 0
KHO1 052028Z 01017KT 13/01 A3025 RMK A01 T01300013  RH  045%=      5-min Rain = 0
KHO1 052029Z 02015KT 13/01 A3025 RMK A01 T01320013  RH  044%=      5-min Rain = 0
KHO1 052030Z 02017G24KT 13/01 A3025 RMK A01 T01330012  RH  044%=      5-min Rain = 0
KHO1 052031Z 01020G25KT 13/01 A3025 RMK A01 T01320010  RH  043%=      5-min Rain = 0
KHO1 052032Z 00017G22KT 13/01 A3025 RMK A01 T01300011  RH  044%=      5-min Rain = 0
KHO1 052033Z 01021G26KT 13/01 A3025 RMK A01 T01310012  RH  044%=      5-min Rain = 0
KHO1 052034Z 01017KT 13/01 A3025 RMK A01 T01300011  RH  044%=      5-min Rain = 0
KHO1 052035Z 02017KT 13/01 A3025 RMK A01 T01300012  RH  044%=      5-min Rain = 0
KHO1 052036Z 02021G29KT 13/01 A3025 RMK A01 T01300011  RH  044%=      5-min Rain = 0
KHO1 052037Z 02022G29KT 13/01 A3025 RMK A01 T01290010  RH  044%=      5-min Rain = 0
KHO1 052038Z 01016KT 13/01 A3025 RMK A01 T01290010  RH  044%=      5-min Rain = 0
KHO1 052039Z 02015KT 13/01 A3025 RMK A01 T01300010  RH  044%=      5-min Rain = 0
KHO1 052040Z 02015G23KT 13/01 A3025 RMK A01 T01310010  RH  044%=      5-min Rain = 0
KHO1 052041Z 03021KT 13/01 A3025 RMK A01 T01310010  RH  044%=      5-min Rain = 0
KHO1 052042Z 03022G27KT 13/01 A3025 RMK A01 T01310009  RH  043%=      5-min Rain = 0
KHO1 052043Z 03018KT 13/01 A3025 RMK A01 T01320010  RH  044%=      5-min Rain = 0
KHO1 052044Z 03020G27KT 13/01 A3025 RMK A01 T01330011  RH  043%=      5-min Rain = 0
KHO1 052045Z 02019G26KT 13/01 A3025 RMK A01 T01340011  RH  043%=      5-min Rain = 0
KHO1 052046Z 03022KT 13/01 A3025 RMK A01 T01320010  RH  043%=      5-min Rain = 0
KHO1 052047Z 03019KT 13/01 A3025 RMK A01 T01310011  RH  044%=      5-min Rain = 0
KHO1 052048Z 04018KT 13/01 A3025 RMK A01 T01310012  RH  044%=      5-min Rain = 0
KHO1 052049Z 04017KT 13/01 A3025 RMK A01 T01310012  RH  044%=      5-min Rain = 0
KHO1 052050Z 03018KT 13/01 A3025 RMK A01 T01310013  RH  044%=      5-min Rain = 0
KHO1 052051Z 02017KT 13/01 A3026 RMK A01 T01300013  RH  045%=      5-min Rain = 0
KHO1 052052Z 02017KT 13/01 A3025 RMK A01 T01310013  RH  044%=      5-min Rain = 0
KHO1 052053Z 03016KT 13/01 A3025 RMK A01 T01320010  RH  043%=      5-min Rain = 0
KHO1 052054Z 02018KT 13/01 A3025 RMK A01 T01320010  RH  043%=      5-min Rain = 0
KHO1 052055Z 02019G25KT 13/01 A3025 RMK A01 T01310011  RH  044%=      5-min Rain = 0
KHO1 052056Z 02017KT 13/01 A3025 RMK A01 T01290011  RH  045%=      5-min Rain = 0
KHO1 052057Z 03019G26KT 13/01 A3025 RMK A01 T01290012  RH  045%=      5-min Rain = 0
KHO1 052058Z 03019KT 13/01 A3025 RMK A01 T01280012  RH  045%=      5-min Rain = 0
KHO1 052059Z 03018G23KT 13/01 A3025 RMK A01 T01280013  RH  045%=      5-min Rain = 0
KHO1 052100Z 03023KT 13/01 A3025 RMK A01 T01270013  RH  046%=      5-min Rain = 0
KHO1 052101Z 03023G29KT 13/01 A3025 RMK A01 T01270013  RH  046%=      5-min Rain = 0
KHO1 052102Z 03019KT 13/01 A3026 RMK A01 T01280013  RH  045%=      5-min Rain = 0
KHO1 052103Z 04019KT 13/01 A3026 RMK A01 T01290011  RH  045%=      5-min Rain = 0
KHO1 052104Z 03021KT 13/01 A3025 RMK A01 T01290010  RH  044%=      5-min Rain = 0
KHO1 052105Z 02019KT 13/01 A3026 RMK A01 T01280011  RH  045%=      5-min Rain = 0
KHO1 052106Z 02018G24KT 13/01 A3026 RMK A01 T01280011  RH  045%=      5-min Rain = 0
KHO1 052107Z 01015KT 13/01 A3026 RMK A01 T01300011  RH  044%=      5-min Rain = 0
KHO1 052108Z 01020KT 13/01 A3025 RMK A01 T01300010  RH  044%=      5-min Rain = 0
KHO1 052109Z 01020KT 13/01 A3026 RMK A01 T01280010  RH  044%=      5-min Rain = 0
KHO1 052110Z 02018KT 13/01 A3025 RMK A01 T01270011  RH  045%=      5-min Rain = 0
KHO1 052111Z 02020KT 13/01 A3026 RMK A01 T01260011  RH  045%=      5-min Rain = 0
KHO1 052112Z 02018KT 13/01 A3026 RMK A01 T01270012  RH  045%=      5-min Rain = 0
KHO1 052113Z 01017G22KT 13/01 A3026 RMK A01 T01290012  RH  045%=      5-min Rain = 0
KHO1 052114Z 02018KT 13/01 A3026 RMK A01 T01280012  RH  045%=      5-min Rain = 0
KHO1 052115Z 03017KT 13/01 A3026 RMK A01 T01280013  RH  045%=      5-min Rain = 0
KHO1 052116Z 02017G22KT 13/01 A3026 RMK A01 T01300014  RH  045%=      5-min Rain = 0
KHO1 052117Z 03018KT 13/01 A3025 RMK A01 T01300014  RH  045%=      5-min Rain = 0
KHO1 052118Z 02019KT 13/02 A3026 RMK A01 T01300015  RH  045%=      5-min Rain = 0
KHO1 052119Z 02022G28KT 13/01 A3026 RMK A01 T01310014  RH  045%=      5-min Rain = 0
KHO1 052120Z 02017G23KT 13/01 A3026 RMK A01 T01290013  RH  045%=      5-min Rain = 0
KHO1 052121Z 02022KT 13/01 A3026 RMK A01 T01300012  RH  044%=      5-min Rain = 0
KHO1 052122Z 02021KT 13/01 A3026 RMK A01 T01290012  RH  045%=      5-min Rain = 0
KHO1 052123Z 02020KT 13/01 A3026 RMK A01 T01280011  RH  045%=      5-min Rain = 0
KHO1 052124Z 03018KT 13/01 A3026 RMK A01 T01290010  RH  044%=      5-min Rain = 0
KHO1 052125Z 02017KT 13/01 A3026 RMK A01 T01290011  RH  044%=      5-min Rain = 0
KHO1 052126Z 01019G25KT 13/01 A3026 RMK A01 T01290010  RH  044%=      5-min Rain = 0
KHO1 052127Z 01021KT 13/01 A3026 RMK A01 T01290010  RH  044%=      5-min Rain = 0
KHO1 052128Z 01020KT 13/01 A3026 RMK A01 T01280009  RH  044%=      5-min Rain = 0
KHO1 052129Z 02017G22KT 13/01 A3026 RMK A01 T01280009  RH  044%=      5-min Rain = 0
KHO1 052130Z 02018G23KT 13/01 A3026 RMK A01 T01280010  RH  045%=      5-min Rain = 0
KHO1 052131Z 03021KT 13/01 A3026 RMK A01 T01270011  RH  045%=      5-min Rain = 0
KHO1 052132Z 02023KT 13/01 A3026 RMK A01 T01260012  RH  046%=      5-min Rain = 0
KHO1 052133Z 03021G26KT 13/01 A3026 RMK A01 T01260013  RH  046%=      5-min Rain = 0
KHO1 052134Z 02019KT 13/01 A3026 RMK A01 T01260014  RH  046%=      5-min Rain = 0
KHO1 052135Z 02017KT 13/01 A3026 RMK A01 T01250014  RH  047%=      5-min Rain = 0
KHO1 052136Z 00017G23KT 13/01 A3026 RMK A01 T01260014  RH  046%=      5-min Rain = 0
KHO1 052137Z 00017G22KT 13/02 A3026 RMK A01 T01260015  RH  047%=      5-min Rain = 0
KHO1 052138Z 01018KT 13/02 A3026 RMK A01 T01270015  RH  047%=      5-min Rain = 0
KHO1 052139Z 01017KT 13/02 A3027 RMK A01 T01260016  RH  047%=      5-min Rain = 0
KHO1 052140Z 01016KT 13/02 A3027 RMK A01 T01260016  RH  047%=      5-min Rain = 0
KHO1 052141Z 00014G20KT 13/02 A3027 RMK A01 T01280017  RH  047%=      5-min Rain = 0
KHO1 052142Z 01016KT 13/02 A3027 RMK A01 T01290017  RH  046%=      5-min Rain = 0
KHO1 052143Z 01019KT 13/02 A3027 RMK A01 T01290015  RH  046%=      5-min Rain = 0
KHO1 052144Z 01018KT 13/02 A3027 RMK A01 T01290015  RH  046%=      5-min Rain = 0
KHO1 052145Z 01018KT 13/01 A3027 RMK A01 T01290013  RH  045%=      5-min Rain = 0
KHO1 052146Z 02014KT 13/01 A3027 RMK A01 T01290014  RH  046%=      5-min Rain = 0
KHO1 052147Z 01018G24KT 13/02 A3027 RMK A01 T01290015  RH  046%=      5-min Rain = 0
KHO1 052148Z 01018KT 13/02 A3027 RMK A01 T01260015  RH  047%=      5-min Rain = 0
KHO1 052149Z 01016KT 13/02 A3027 RMK A01 T01250015  RH  047%=      5-min Rain = 0
KHO1 052150Z 02015G22KT 12/02 A3027 RMK A01 T01240016  RH  047%=      5-min Rain = 0
KHO1 052151Z 02019KT 12/02 A3027 RMK A01 T01240016  RH  048%=      5-min Rain = 0
KHO1 052152Z 02016KT 12/02 A3027 RMK A01 T01230016  RH  048%=      5-min Rain = 0
KHO1 052153Z 02016KT 13/02 A3027 RMK A01 T01250018  RH  048%=      5-min Rain = 0
KHO1 052154Z 01018KT 13/02 A3027 RMK A01 T01290016  RH  046%=      5-min Rain = 0
KHO1 052155Z 02013KT 13/02 A3027 RMK A01 T01310015  RH  045%=      5-min Rain = 0
KHO1 052156Z 02015KT 13/01 A3027 RMK A01 T01330012  RH  044%=      5-min Rain = 0
KHO1 052157Z 01017G22KT 13/01 A3027 RMK A01 T01320010  RH  044%=      5-min Rain = 0
KHO1 052158Z 02018KT 13/01 A3027 RMK A01 T01290010  RH  044%=      5-min Rain = 0
KHO1 052159Z 01019G26KT 13/01 A3027 RMK A01 T01270011  RH  045%=      5-min Rain = 0
KHO1 052200Z 00017KT 13/01 A3027 RMK A01 T01260012  RH  045%=      5-min Rain = 0
KHO1 052201Z 36018KT 13/01 A3027 RMK A01 T01260010  RH  045%=      5-min Rain = 0
KHO1 052202Z 01016KT 13/01 A3027 RMK A01 T01260009  RH  045%=      5-min Rain = 0
KHO1 052203Z 01015KT 13/01 A3027 RMK A01 T01280009  RH  044%=      5-min Rain = 0
KHO1 052204Z 02015G20KT 13/01 A3028 RMK A01 T01290009  RH  044%=      5-min Rain = 0
KHO1 052205Z 02018KT 13/01 A3027 RMK A01 T01290009  RH  044%=      5-min Rain = 0
KHO1 052206Z 02019KT 13/01 A3027 RMK A01 T01260009  RH  045%=      5-min Rain = 0
KHO1 052207Z 02019G25KT 13/01 A3027 RMK A01 T01250010  RH  046%=      5-min Rain = 0
KHO1 052208Z 03019KT 13/01 A3027 RMK A01 T01250011  RH  046%=      5-min Rain = 0
KHO1 052209Z 01015KT 12/01 A3028 RMK A01 T01240011  RH  046%=      5-min Rain = 0
KHO1 052210Z 02015KT 12/01 A3028 RMK A01 T01240011  RH  046%=      5-min Rain = 0
KHO1 052211Z 01014KT 13/01 A3028 RMK A01 T01250011  RH  046%=      5-min Rain = 0
KHO1 052212Z 01015KT 13/01 A3028 RMK A01 T01250011  RH  045%=      5-min Rain = 0
KHO1 052213Z 01016KT 13/01 A3028 RMK A01 T01260011  RH  045%=      5-min Rain = 0
KHO1 052214Z 01015KT 13/01 A3028 RMK A01 T01250011  RH  046%=      5-min Rain = 0
KHO1 052215Z 02014KT 13/01 A3028 RMK A01 T01260011  RH  045%=      5-min Rain = 0
KHO1 052216Z 01015KT 13/01 A3028 RMK A01 T01260011  RH  045%=      5-min Rain = 0
KHO1 052217Z 02014KT 13/01 A3028 RMK A01 T01270012  RH  045%=      5-min Rain = 0
KHO1 052218Z 02015KT 13/01 A3028 RMK A01 T01270012  RH  045%=      5-min Rain = 0
KHO1 052219Z 02012KT 13/01 A3028 RMK A01 T01280012  RH  045%=      5-min Rain = 0
KHO1 052220Z 02013G18KT 13/01 A3028 RMK A01 T01290012  RH  045%=      5-min Rain = 0
KHO1 052221Z 01015G22KT 13/01 A3028 RMK A01 T01280012  RH  045%=      5-min Rain = 0
KHO1 052222Z 01016KT 13/01 A3028 RMK A01 T01260012  RH  046%=      5-min Rain = 0
KHO1 052223Z 02016KT 13/01 A3028 RMK A01 T01250013  RH  046%=      5-min Rain = 0
KHO1 052224Z 02016G21KT 12/01 A3028 RMK A01 T01240013  RH  047%=      5-min Rain = 0
KHO1 052225Z 01014KT 12/01 A3029 RMK A01 T01230013  RH  047%=      5-min Rain = 0
KHO1 052226Z 01015KT 12/01 A3028 RMK A01 T01230014  RH  047%=      5-min Rain = 0
KHO1 052227Z 01014KT 12/01 A3028 RMK A01 T01230014  RH  047%=      5-min Rain = 0
KHO1 052228Z 01013KT 12/02 A3028 RMK A01 T01240015  RH  047%=      5-min Rain = 0
KHO1 052229Z 01016KT 13/01 A3028 RMK A01 T01250014  RH  047%=      5-min Rain = 0
KHO1 052230Z 01015KT 12/01 A3028 RMK A01 T01240013  RH  047%=      5-min Rain = 0
KHO1 052231Z 01016KT 13/01 A3028 RMK A01 T01250013  RH  046%=      5-min Rain = 0
KHO1 052232Z 02016KT 13/01 A3028 RMK A01 T01250012  RH  046%=      5-min Rain = 0
KHO1 052233Z 02015KT 12/01 A3028 RMK A01 T01240011  RH  046%=      5-min Rain = 0
KHO1 052234Z 01017G22KT 12/01 A3028 RMK A01 T01240010  RH  046%=      5-min Rain = 0
KHO1 052235Z 01017G23KT 12/01 A3028 RMK A01 T01240009  RH  046%=      5-min Rain = 0
KHO1 052236Z 01016KT 12/01 A3028 RMK A01 T01240010  RH  046%=      5-min Rain = 0
KHO1 052237Z 02015KT 12/01 A3028 RMK A01 T01240010  RH  046%=      5-min Rain = 0
KHO1 052238Z 03014KT 13/01 A3028 RMK A01 T01250011  RH  046%=      5-min Rain = 0
KHO1 052239Z 03014KT 13/01 A3028 RMK A01 T01260010  RH  045%=      5-min Rain = 0
KHO1 052240Z 03014KT 13/01 A3028 RMK A01 T01270009  RH  045%=      5-min Rain = 0
KHO1 052241Z 02015KT 13/01 A3028 RMK A01 T01260009  RH  045%=      5-min Rain = 0
KHO1 052242Z 02013KT 13/01 A3029 RMK A01 T01260009  RH  045%=      5-min Rain = 0
KHO1 052243Z 02012KT 13/01 A3029 RMK A01 T01270009  RH  044%=      5-min Rain = 0
KHO1 052244Z 02012G17KT 13/01 A3029 RMK A01 T01280008  RH  044%=      5-min Rain = 0
KHO1 052245Z 03018KT 13/01 A3028 RMK A01 T01280007  RH  044%=      5-min Rain = 0
KHO1 052246Z 03016KT 13/01 A3029 RMK A01 T01270007  RH  044%=      5-min Rain = 0
KHO1 052247Z 02015KT 13/01 A3029 RMK A01 T01270007  RH  044%=      5-min Rain = 0
KHO1 052248Z 02017KT 13/01 A3029 RMK A01 T01260007  RH  044%=      5-min Rain = 0
KHO1 052249Z 02016KT 13/01 A3029 RMK A01 T01250008  RH  045%=      5-min Rain = 0
KHO1 052250Z 01018KT 13/01 A3029 RMK A01 T01250007  RH  045%=      5-min Rain = 0
KHO1 052251Z 02016G21KT 13/01 A3029 RMK A01 T01250007  RH  045%=      5-min Rain = 0
KHO1 052252Z 03018KT 13/01 A3029 RMK A01 T01250006  RH  044%=      5-min Rain = 0
KHO1 052253Z 03018KT 13/01 A3029 RMK A01 T01250007  RH  045%=      5-min Rain = 0
KHO1 052254Z 02018KT 13/01 A3029 RMK A01 T01250008  RH  045%=      5-min Rain = 0
KHO1 052255Z 02020KT 12/01 A3029 RMK A01 T01240008  RH  045%=      5-min Rain = 0
KHO1 052256Z 02018KT 12/01 A3029 RMK A01 T01240009  RH  045%=      5-min Rain = 0
KHO1 052257Z 03015G20KT 12/01 A3029 RMK A01 T01240009  RH  045%=      5-min Rain = 0
KHO1 052258Z 03019KT 13/01 A3029 RMK A01 T01260008  RH  045%=      5-min Rain = 0
KHO1 052259Z 04019KT 13/01 A3028 RMK A01 T01250008  RH  045%=      5-min Rain = 0
KHO1 052300Z 03018KT 13/01 A3029 RMK A01 T01250009  RH  045%=      5-min Rain = 0
KHO1 052301Z 03017KT 13/01 A3029 RMK A01 T01270009  RH  044%=      5-min Rain = 0
KHO1 052302Z 01016KT 13/01 A3029 RMK A01 T01270009  RH  045%=      5-min Rain = 0
KHO1 052303Z 02014G20KT 13/01 A3029 RMK A01 T01260010  RH  045%=      5-min Rain = 0
KHO1 052304Z 01017G22KT 13/01 A3029 RMK A01 T01270007  RH  044%=      5-min Rain = 0
KHO1 052305Z 01017G23KT 13/01 A3029 RMK A01 T01260006  RH  044%=      5-min Rain = 0
KHO1 052306Z 01017KT 13/01 A3029 RMK A01 T01270006  RH  044%=      5-min Rain = 0
KHO1 052307Z 01016KT 13/01 A3029 RMK A01 T01280005  RH  043%=      5-min Rain = 0
KHO1 052308Z 01018G23KT 13/01 A3029 RMK A01 T01290005  RH  043%=      5-min Rain = 0
KHO1 052309Z 02015G20KT 13/01 A3029 RMK A01 T01280005  RH  043%=      5-min Rain = 0
KHO1 052310Z 03017KT 13/01 A3029 RMK A01 T01280005  RH  043%=      5-min Rain = 0
KHO1 052311Z 03016KT 13/01 A3029 RMK A01 T01280005  RH  043%=      5-min Rain = 0
KHO1 052312Z 02016G21KT 13/01 A3029 RMK A01 T01270005  RH  043%=      5-min Rain = 0
KHO1 052313Z 02016KT 13/01 A3029 RMK A01 T01260006  RH  044%=      5-min Rain = 0
KHO1 052314Z 02015KT 13/01 A3029 RMK A01 T01250007  RH  044%=      5-min Rain = 0
KHO1 052315Z 01019KT 12/01 A3029 RMK A01 T01240007  RH  045%=      5-min Rain = 0
KHO1 052316Z 02019KT 12/01 A3029 RMK A01 T01220006  RH  045%=      5-min Rain = 0
KHO1 052317Z 02017G23KT 12/01 A3029 RMK A01 T01220005  RH  045%=      5-min Rain = 0
KHO1 052318Z 02016KT 12/00 A3029 RMK A01 T01220004  RH  044%=      5-min Rain = 0
KHO1 052319Z 02015KT 12/00 A3029 RMK A01 T01220004  RH  045%=      5-min Rain = 0
KHO1 052320Z 01014G19KT 12/01 A3029 RMK A01 T01220005  RH  045%=      5-min Rain = 0
KHO1 052321Z 01016KT 12/01 A3029 RMK A01 T01220005  RH  045%=      5-min Rain = 0
KHO1 052322Z 02019KT 12/01 A3029 RMK A01 T01220005  RH  045%=      5-min Rain = 0
KHO1 052323Z 02020KT 12/01 A3029 RMK A01 T01220005  RH  045%=      5-min Rain = 0
KHO1 052324Z 02019KT 12/01 A3029 RMK A01 T01210005  RH  045%=      5-min Rain = 0
KHO1 052325Z 02016KT 12/01 A3029 RMK A01 T01210005  RH  045%=      5-min Rain = 0
KHO1 052326Z 01016KT 12/01 A3029 RMK A01 T01210006  RH  045%=      5-min Rain = 0
KHO1 052327Z 01018G23KT 12/01 A3029 RMK A01 T01200007  RH  046%=      5-min Rain = 0
KHO1 052328Z 01022KT 12/01 A3029 RMK A01 T01190007  RH  046%=      5-min Rain = 0
KHO1 052329Z 02015G22KT 12/01 A3029 RMK A01 T01190008  RH  047%=      5-min Rain = 0
KHO1 052330Z 03021G26KT 12/01 A3029 RMK A01 T01190008  RH  046%=      5-min Rain = 0
KHO1 052331Z 03021KT 12/01 A3029 RMK A01 T01190008  RH  046%=      5-min Rain = 0
KHO1 052332Z 03017KT 12/01 A303 RMK A01 T01190007  RH  046%=      5-min Rain = 0
KHO1 052333Z 03016G21KT 12/01 A303 RMK A01 T01190007  RH  046%=      5-min Rain = 0
KHO1 052334Z 03019G24KT 12/01 A303 RMK A01 T01190008  RH  047%=      5-min Rain = 0
KHO1 052335Z 02019KT 12/01 A303 RMK A01 T01170008  RH  047%=      5-min Rain = 0
KHO1 052336Z 03019G26KT 12/01 A303 RMK A01 T01170008  RH  047%=      5-min Rain = 0
KHO1 052337Z 03021KT 12/01 A303 RMK A01 T01170008  RH  047%=      5-min Rain = 0
KHO1 052338Z 03018G23KT 12/01 A303 RMK A01 T01160007  RH  047%=      5-min Rain = 0
KHO1 052339Z 03019G24KT 12/01 A3029 RMK A01 T01160006  RH  047%=      5-min Rain = 0
KHO1 052340Z 03019KT 12/01 A303 RMK A01 T01160005  RH  047%=      5-min Rain = 0
KHO1 052341Z 02017KT 12/01 A303 RMK A01 T01160006  RH  047%=      5-min Rain = 0
KHO1 052342Z 03020KT 12/01 A303 RMK A01 T01150006  RH  047%=      5-min Rain = 0
KHO1 052343Z 02019G25KT 12/01 A303 RMK A01 T01150007  RH  048%=      5-min Rain = 0
KHO1 052344Z 03016KT 11/01 A303 RMK A01 T01140007  RH  048%=      5-min Rain = 0
KHO1 052345Z 04014KT 12/01 A303 RMK A01 T01150007  RH  048%=      5-min Rain = 0
KHO1 052346Z 03016KT 12/01 A303 RMK A01 T01150007  RH  048%=      5-min Rain = 0
KHO1 052347Z 03016KT 12/01 A303 RMK A01 T01150007  RH  047%=      5-min Rain = 0
KHO1 052348Z 03017KT 12/01 A303 RMK A01 T01150006  RH  047%=      5-min Rain = 0
KHO1 052349Z 03018KT 12/01 A303 RMK A01 T01150005  RH  047%=      5-min Rain = 0
KHO1 052350Z 03018KT 12/00 A303 RMK A01 T01150004  RH  046%=      5-min Rain = 0
KHO1 052351Z 03018KT 12/01 A303 RMK A01 T01150005  RH  047%=      5-min Rain = 0
KHO1 052352Z 03020KT 12/01 A303 RMK A01 T01150005  RH  047%=      5-min Rain = 0
KHO1 052353Z 04018KT 12/01 A303 RMK A01 T01150005  RH  047%=      5-min Rain = 0
KHO1 052354Z 03019G24KT 12/00 A303 RMK A01 T01150004  RH  046%=      5-min Rain = 0
KHO1 052355Z 03022KT 11/00 A303 RMK A01 T01140003  RH  046%=      5-min Rain = 0
KHO1 052356Z 03021KT 11/00 A303 RMK A01 T01140003  RH  046%=      5-min Rain = 0
KHO1 052357Z 03018KT 11/00 A303 RMK A01 T01140003  RH  046%=      5-min Rain = 0
KHO1 052358Z 03017KT 11/00 A3031 RMK A01 T01140003  RH  046%=      5-min Rain = 0
KHO1 052359Z 03020KT 11/00 A303 RMK A01 T01140003  RH  047%=      5-min Rain = 0
KHO1 060000Z 03017G22KT 11/00 A3031 RMK A01 T01130004  RH  047%=      5-min Rain = 0
KHO1 060001Z 03019KT 11/00 A303 RMK A01 T01130004  RH  047%=      5-min Rain = 0
KHO1 060002Z 03018KT 11/00 A3031 RMK A01 T01130004  RH  047%=      5-min Rain = 0
KHO1 060003Z 03018KT 11/00 A3031 RMK A01 T01130004  RH  047%=      5-min Rain = 0
KHO1 060004Z 03021KT 11/00 A303 RMK A01 T01130004  RH  047%=      5-min Rain = 0
KHO1 060005Z 04019KT 11/01 A303 RMK A01 T01120005  RH  047%=      5-min Rain = 0
KHO1 060006Z 04017KT 11/01 A3031 RMK A01 T01120005  RH  048%=      5-min Rain = 0
KHO1 060007Z 03018KT 11/01 A3031 RMK A01 T01120005  RH  048%=      5-min Rain = 0
KHO1 060008Z 03017KT 11/01 A3031 RMK A01 T01120006  RH  048%=      5-min Rain = 0
KHO1 060009Z 03017KT 11/01 A3031 RMK A01 T01120006  RH  048%=      5-min Rain = 0
KHO1 060010Z 03013KT 11/01 A3031 RMK A01 T01120006  RH  048%=      5-min Rain = 0
KHO1 060011Z 03014KT 11/01 A3031 RMK A01 T01120006  RH  048%=      5-min Rain = 0
KHO1 060012Z 03016KT 11/01 A3031 RMK A01 T01120006  RH  048%=      5-min Rain = 0
KHO1 060013Z 03017KT 11/01 A3031 RMK A01 T01120006  RH  048%=      5-min Rain = 0
KHO1 060014Z 03014KT 11/01 A3031 RMK A01 T01110006  RH  048%=      5-min Rain = 0
KHO1 060015Z 03017KT 11/01 A3031 RMK A01 T01110007  RH  049%=      5-min Rain = 0
KHO1 060016Z 02014KT 11/01 A3031 RMK A01 T01110007  RH  049%=      5-min Rain = 0
KHO1 060017Z 03016KT 11/01 A3031 RMK A01 T01110007  RH  049%=      5-min Rain = 0
KHO1 060018Z 03012KT 11/01 A3032 RMK A01 T01110007  RH  049%=      5-min Rain = 0
KHO1 060019Z 03011KT 11/01 A3032 RMK A01 T01110007  RH  049%=      5-min Rain = 0
KHO1 060020Z 03011KT 11/01 A3031 RMK A01 T01110006  RH  048%=      5-min Rain = 0
KHO1 060021Z 02014KT 11/01 A3032 RMK A01 T01110007  RH  048%=      5-min Rain = 0
KHO1 060022Z 03014KT 11/01 A3031 RMK A01 T01110007  RH  048%=      5-min Rain = 0
KHO1 060023Z 03015KT 11/01 A3031 RMK A01 T01110006  RH  048%=      5-min Rain = 0
KHO1 060024Z 02015KT 11/01 A3031 RMK A01 T01110006  RH  048%=      5-min Rain = 0
KHO1 060025Z 02014KT 11/01 A3031 RMK A01 T01110006  RH  048%=      5-min Rain = 0
KHO1 060026Z 03012KT 11/01 A3032 RMK A01 T01110006  RH  048%=      5-min Rain = 0
KHO1 060027Z 03013KT 11/01 A3032 RMK A01 T01110007  RH  049%=      5-min Rain = 0
KHO1 060028Z 03015KT 11/01 A3031 RMK A01 T01110007  RH  049%=      5-min Rain = 0
KHO1 060029Z 04013KT 11/01 A3032 RMK A01 T01110007  RH  049%=      5-min Rain = 0
KHO1 060030Z 04014KT 11/01 A3032 RMK A01 T01110007  RH  049%=      5-min Rain = 0
KHO1 060031Z 04015KT 11/01 A3031 RMK A01 T01110007  RH  049%=      5-min Rain = 0
KHO1 060032Z 03012KT 11/01 A3032 RMK A01 T01110007  RH  049%=      5-min Rain = 0
KHO1 060033Z 03013KT 11/01 A3032 RMK A01 T01110007  RH  049%=      5-min Rain = 0
KHO1 060034Z 02012KT 11/01 A3032 RMK A01 T01110007  RH  049%=      5-min Rain = 0
KHO1 060035Z 03014KT 11/01 A3032 RMK A01 T01110007  RH  049%=      5-min Rain = 0
KHO1 060036Z 04015KT 11/01 A3032 RMK A01 T01110007  RH  049%=      5-min Rain = 0
KHO1 060037Z 04013KT 11/01 A3032 RMK A01 T01110008  RH  049%=      5-min Rain = 0
KHO1 060038Z 04014KT 11/01 A3032 RMK A01 T01100009  RH  050%=      5-min Rain = 0
KHO1 060039Z 04013KT 11/01 A3032 RMK A01 T01100009  RH  050%=      5-min Rain = 0
KHO1 060040Z 04012KT 11/01 A3032 RMK A01 T01100009  RH  050%=      5-min Rain = 0
KHO1 060041Z 03014KT 11/01 A3032 RMK A01 T01100009  RH  050%=      5-min Rain = 0
KHO1 060042Z 04011KT 11/01 A3032 RMK A01 T01100009  RH  050%=      5-min Rain = 0
KHO1 060043Z 04012KT 11/01 A3032 RMK A01 T01100010  RH  050%=      5-min Rain = 0
KHO1 060044Z 03012KT 11/01 A3032 RMK A01 T01090010  RH  050%=      5-min Rain = 0
KHO1 060045Z 04009KT 11/01 A3032 RMK A01 T01090010  RH  050%=      5-min Rain = 0
KHO1 060046Z 04009KT 11/01 A3032 RMK A01 T01090010  RH  050%=      5-min Rain = 0
KHO1 060047Z 04011KT 11/01 A3032 RMK A01 T01090010  RH  050%=      5-min Rain = 0
KHO1 060048Z 04012KT 11/01 A3032 RMK A01 T01090011  RH  051%=      5-min Rain = 0
KHO1 060049Z 04014KT 11/01 A3032 RMK A01 T01090011  RH  051%=      5-min Rain = 0
KHO1 060050Z 04014KT 11/01 A3032 RMK A01 T01090011  RH  051%=      5-min Rain = 0
KHO1 060051Z 03013KT 11/01 A3032 RMK A01 T01090011  RH  051%=      5-min Rain = 0
KHO1 060052Z 03014KT 11/01 A3032 RMK A01 T01090011  RH  051%=      5-min Rain = 0
KHO1 060053Z 03014KT 11/01 A3032 RMK A01 T01090011  RH  051%=      5-min Rain = 0
KHO1 060054Z 04012KT 11/01 A3032 RMK A01 T01090011  RH  051%=      5-min Rain = 0
KHO1 060055Z 03010KT 11/01 A3032 RMK A01 T01090011  RH  051%=      5-min Rain = 0
KHO1 060056Z 03011KT 11/01 A3032 RMK A01 T01090011  RH  051%=      5-min Rain = 0
KHO1 060057Z 03011KT 11/01 A3032 RMK A01 T01080011  RH  051%=      5-min Rain = 0
KHO1 060058Z 04010KT 11/01 A3032 RMK A01 T01080011  RH  051%=      5-min Rain = 0
KHO1 060059Z 04010KT 11/01 A3032 RMK A01 T01080012  RH  051%=      5-min Rain = 0
KHO1 060100Z 05008KT 11/01 A3032 RMK A01 T01080012  RH  051%=      5-min Rain = 0
KHO1 060101Z 04010KT 11/01 A3032 RMK A01 T01080012  RH  052%=      5-min Rain = 0
KHO1 060102Z 04009KT 11/01 A3032 RMK A01 T01080012  RH  052%=      5-min Rain = 0
KHO1 060103Z 03008KT 11/01 A3032 RMK A01 T01070012  RH  052%=      5-min Rain = 0
KHO1 060104Z 03007KT 11/01 A3032 RMK A01 T01060012  RH  052%=      5-min Rain = 0
KHO1 060105Z 04009KT 11/01 A3032 RMK A01 T01060012  RH  052%=      5-min Rain = 0
KHO1 060106Z 03009KT 11/01 A3032 RMK A01 T01050012  RH  053%=      5-min Rain = 0
KHO1 060107Z 03009KT 10/01 A3032 RMK A01 T01040012  RH  053%=      5-min Rain = 0
KHO1 060108Z 03010KT 10/01 A3032 RMK A01 T01030012  RH  053%=      5-min Rain = 0
KHO1 060109Z 04007KT 10/01 A3032 RMK A01 T01020012  RH  053%=      5-min Rain = 0
KHO1 060110Z 04006KT 10/01 A3032 RMK A01 T01010012  RH  054%=      5-min Rain = 0
KHO1 060111Z 04009KT 10/01 A3032 RMK A01 T01010012  RH  054%=      5-min Rain = 0
KHO1 060112Z 03007KT 10/01 A3032 RMK A01 T01000012  RH  054%=      5-min Rain = 0
KHO1 060113Z 03007KT 10/01 A3032 RMK A01 T01000012  RH  054%=      5-min Rain = 0
KHO1 060114Z 03007KT 10/01 A3032 RMK A01 T00990012  RH  055%=      5-min Rain = 0
KHO1 060115Z 03008KT 10/01 A3032 RMK A01 T00990012  RH  055%=      5-min Rain = 0
KHO1 060116Z 03007KT 10/01 A3032 RMK A01 T00980012  RH  055%=      5-min Rain = 0
KHO1 060117Z 03007KT 10/01 A3032 RMK A01 T00980012  RH  055%=      5-min Rain = 0
KHO1 060118Z 04006KT 10/01 A3032 RMK A01 T00970012  RH  055%=      5-min Rain = 0
KHO1 060119Z 03007KT 10/01 A3032 RMK A01 T00960012  RH  056%=      5-min Rain = 0
KHO1 060120Z 03007KT 10/01 A3032 RMK A01 T00960012  RH  056%=      5-min Rain = 0
KHO1 060121Z 03007KT 10/01 A3032 RMK A01 T00960012  RH  056%=      5-min Rain = 0
KHO1 060122Z 03007KT 10/01 A3033 RMK A01 T00950012  RH  056%=      5-min Rain = 0
KHO1 060123Z 03006KT 09/01 A3033 RMK A01 T00940012  RH  056%=      5-min Rain = 0
KHO1 060124Z 04006KT 09/01 A3033 RMK A01 T00940012  RH  056%=      5-min Rain = 0
KHO1 060125Z 03006KT 09/01 A3033 RMK A01 T00930012  RH  057%=      5-min Rain = 0
KHO1 060126Z 04005KT 09/01 A3033 RMK A01 T00930012  RH  057%=      5-min Rain = 0
KHO1 060127Z 04006KT 09/01 A3033 RMK A01 T00920011  RH  057%=      5-min Rain = 0
KHO1 060128Z 03006KT 09/01 A3033 RMK A01 T00920012  RH  057%=      5-min Rain = 0
KHO1 060129Z 03005KT 09/01 A3033 RMK A01 T00910011  RH  057%=      5-min Rain = 0
KHO1 060130Z 03006KT 09/01 A3033 RMK A01 T00900012  RH  058%=      5-min Rain = 0
KHO1 060131Z 03006KT 09/01 A3033 RMK A01 T00900012  RH  058%=      5-min Rain = 0
KHO1 060132Z 03007KT 09/01 A3033 RMK A01 T00900012  RH  058%=      5-min Rain = 0
KHO1 060133Z 03006KT 09/01 A3033 RMK A01 T00890012  RH  058%=      5-min Rain = 0
KHO1 060134Z 03006KT 09/01 A3033 RMK A01 T00890012  RH  058%=      5-min Rain = 0
KHO1 060135Z 03006KT 09/01 A3033 RMK A01 T00880012  RH  059%=      5-min Rain = 0
KHO1 060136Z 03005KT 09/01 A3033 RMK A01 T00880011  RH  059%=      5-min Rain = 0
KHO1 060137Z 03006KT 09/01 A3033 RMK A01 T00870012  RH  059%=      5-min Rain = 0
KHO1 060138Z 03005KT 09/01 A3033 RMK A01 T00870011  RH  059%=      5-min Rain = 0
KHO1 060139Z 03005KT 09/01 A3033 RMK A01 T00860011  RH  059%=      5-min Rain = 0
KHO1 060140Z 03005KT 09/01 A3033 RMK A01 T00850011  RH  059%=      5-min Rain = 0
KHO1 060141Z 03005KT 09/01 A3033 RMK A01 T00850010  RH  060%=      5-min Rain = 0
KHO1 060142Z 03005KT 08/01 A3033 RMK A01 T00840011  RH  060%=      5-min Rain = 0
KHO1 060143Z 03005KT 08/01 A3033 RMK A01 T00830010  RH  060%=      5-min Rain = 0
KHO1 060144Z 03004KT 08/01 A3033 RMK A01 T00830010  RH  060%=      5-min Rain = 0
KHO1 060145Z 03004KT 08/01 A3033 RMK A01 T00820010  RH  060%=      5-min Rain = 0
KHO1 060146Z 03005KT 08/01 A3033 RMK A01 T00820010  RH  061%=      5-min Rain = 0
KHO1 060147Z 03004KT 08/01 A3033 RMK A01 T00820011  RH  061%=      5-min Rain = 0
KHO1 060148Z 03004KT 08/01 A3033 RMK A01 T00820010  RH  061%=      5-min Rain = 0
KHO1 060149Z 03004KT 08/01 A3033 RMK A01 T00820010  RH  061%=      5-min Rain = 0
KHO1 060150Z 03003KT 08/01 A3034 RMK A01 T00810010  RH  061%=      5-min Rain = 0
KHO1 060151Z 03004KT 08/01 A3034 RMK A01 T00810010  RH  061%=      5-min Rain = 0
KHO1 060152Z 03004KT 08/01 A3034 RMK A01 T00810010  RH  061%=      5-min Rain = 0
KHO1 060153Z 03004KT 08/01 A3034 RMK A01 T00810010  RH  061%=      5-min Rain = 0
KHO1 060154Z 03004KT 08/01 A3034 RMK A01 T00810010  RH  061%=      5-min Rain = 0
KHO1 060155Z 02004KT 08/01 A3034 RMK A01 T00810009  RH  060%=      5-min Rain = 0
KHO1 060156Z 02003KT 08/01 A3034 RMK A01 T00810009  RH  061%=      5-min Rain = 0
KHO1 060157Z 02003KT 08/01 A3034 RMK A01 T00810009  RH  061%=      5-min Rain = 0
KHO1 060158Z 01003KT 08/01 A3034 RMK A01 T00810009  RH  061%=      5-min Rain = 0
KHO1 060159Z 02003KT 08/01 A3034 RMK A01 T00810009  RH  061%=      5-min Rain = 0
KHO1 060200Z 02003KT 08/01 A3034 RMK A01 T00800009  RH  061%=      5-min Rain = 0
KHO1 060201Z 02003KT 08/01 A3034 RMK A01 T00800010  RH  061%=      5-min Rain = 0
KHO1 060202Z 02003KT 08/01 A3034 RMK A01 T00810009  RH  061%=      5-min Rain = 0
KHO1 060203Z 02003KT 08/01 A3034 RMK A01 T00810010  RH  061%=      5-min Rain = 0
KHO1 060204Z 02003KT 08/01 A3034 RMK A01 T00810010  RH  061%=      5-min Rain = 0
KHO1 060205Z 02003KT 08/01 A3034 RMK A01 T00810010  RH  061%=      5-min Rain = 0
KHO1 060206Z 03003KT 08/01 A3034 RMK A01 T00810010  RH  061%=      5-min Rain = 0
KHO1 060207Z 02004KT 08/01 A3034 RMK A01 T00810010  RH  061%=      5-min Rain = 0
KHO1 060208Z 02003KT 08/01 A3034 RMK A01 T00810009  RH  061%=      5-min Rain = 0
KHO1 060209Z 02003KT 08/01 A3034 RMK A01 T00810009  RH  061%=      5-min Rain = 0
KHO1 060210Z 02003KT 08/01 A3034 RMK A01 T00800009  RH  061%=      5-min Rain = 0
KHO1 060211Z 02003KT 08/01 A3034 RMK A01 T00800009  RH  061%=      5-min Rain = 0
KHO1 060212Z 02003KT 08/01 A3034 RMK A01 T00800010  RH  061%=      5-min Rain = 0
KHO1 060213Z 03002KT 08/01 A3034 RMK A01 T00800009  RH  061%=      5-min Rain = 0
KHO1 060214Z 02003KT 08/01 A3034 RMK A01 T00800009  RH  061%=      5-min Rain = 0
KHO1 060215Z 02002KT 08/01 A3034 RMK A01 T00790008  RH  061%=      5-min Rain = 0
KHO1 060216Z 01002KT 08/01 A3034 RMK A01 T00790009  RH  061%=      5-min Rain = 0
KHO1 060217Z 02002KT 08/01 A3034 RMK A01 T00780008  RH  061%=      5-min Rain = 0
KHO1 060218Z 01002KT 08/01 A3034 RMK A01 T00780008  RH  061%=      5-min Rain = 0
KHO1 060219Z 01002KT 08/01 A3034 RMK A01 T00770008  RH  061%=      5-min Rain = 0
KHO1 060220Z 01002KT 08/01 A3034 RMK A01 T00770008  RH  062%=      5-min Rain = 0
KHO1 060221Z 02002KT 08/01 A3034 RMK A01 T00760008  RH  062%=      5-min Rain = 0
KHO1 060222Z 01002KT 08/01 A3034 RMK A01 T00760008  RH  062%=      5-min Rain = 0
KHO1 060223Z 00002KT 08/01 A3034 RMK A01 T00760008  RH  062%=      5-min Rain = 0
KHO1 060224Z 00002KT 08/01 A3034 RMK A01 T00760009  RH  063%=      5-min Rain = 0
KHO1 060225Z 00002KT 08/01 A3034 RMK A01 T00750009  RH  062%=      5-min Rain = 0
KHO1 060226Z 00002KT 08/01 A3034 RMK A01 T00750008  RH  063%=      5-min Rain = 0
KHO1 060227Z 00003KT 08/01 A3034 RMK A01 T00750008  RH  063%=      5-min Rain = 0
KHO1 060228Z 01003KT 08/01 A3034 RMK A01 T00750008  RH  062%=      5-min Rain = 0
KHO1 060229Z 00003KT 08/01 A3034 RMK A01 T00750007  RH  062%=      5-min Rain = 0
KHO1 060230Z 00003KT 08/01 A3034 RMK A01 T00750007  RH  062%=      5-min Rain = 0
KHO1 060231Z 00003KT 08/01 A3034 RMK A01 T00750007  RH  062%=      5-min Rain = 0
KHO1 060232Z 36004KT 07/01 A3034 RMK A01 T00740007  RH  062%=      5-min Rain = 0
KHO1 060233Z 00003KT 07/01 A3034 RMK A01 T00740008  RH  063%=      5-min Rain = 0
KHO1 060234Z 00004KT 07/01 A3034 RMK A01 T00740008  RH  063%=      5-min Rain = 0
KHO1 060235Z 00003KT 07/01 A3034 RMK A01 T00730006  RH  062%=      5-min Rain = 0
KHO1 060236Z 00002KT 07/01 A3034 RMK A01 T00730006  RH  063%=      5-min Rain = 0
KHO1 060237Z 00002KT 07/01 A3034 RMK A01 T00720006  RH  063%=      5-min Rain = 0
KHO1 060238Z 00002KT 07/01 A3034 RMK A01 T00720006  RH  063%=      5-min Rain = 0
KHO1 060239Z 35002KT 07/01 A3034 RMK A01 T00710006  RH  063%=      5-min Rain = 0
KHO1 060240Z 35002KT 07/01 A3034 RMK A01 T00700008  RH  064%=      5-min Rain = 0
KHO1 060241Z 35002KT 07/01 A3034 RMK A01 T00700009  RH  065%=      5-min Rain = 0
KHO1 060242Z 35002KT 07/01 A3034 RMK A01 T00700010  RH  065%=      5-min Rain = 0
KHO1 060243Z 34002KT 07/01 A3034 RMK A01 T00690010  RH  066%=      5-min Rain = 0
KHO1 060244Z 35003KT 07/01 A3034 RMK A01 T00690010  RH  066%=      5-min Rain = 0
KHO1 060245Z 35003KT 07/01 A3035 RMK A01 T00680010  RH  067%=      5-min Rain = 0
KHO1 060246Z 35003KT 07/01 A3035 RMK A01 T00680010  RH  067%=      5-min Rain = 0
KHO1 060247Z 35003KT 07/01 A3035 RMK A01 T00670011  RH  067%=      5-min Rain = 0
KHO1 060248Z 35003KT 07/01 A3035 RMK A01 T00670011  RH  067%=      5-min Rain = 0
KHO1 060249Z 35003KT 07/01 A3035 RMK A01 T00670011  RH  067%=      5-min Rain = 0
KHO1 060250Z 35003KT 07/01 A3035 RMK A01 T00670011  RH  068%=      5-min Rain = 0
KHO1 060251Z 35003KT 07/01 A3035 RMK A01 T00660011  RH  068%=      5-min Rain = 0
KHO1 060252Z 35003KT 07/01 A3035 RMK A01 T00660011  RH  068%=      5-min Rain = 0
KHO1 060253Z 35003KT 07/01 A3035 RMK A01 T00660011  RH  068%=      5-min Rain = 0
KHO1 060254Z 35003KT 07/01 A3035 RMK A01 T00650011  RH  068%=      5-min Rain = 0
KHO1 060255Z 34003KT 07/01 A3035 RMK A01 T00650012  RH  069%=      5-min Rain = 0
KHO1 060256Z 34003KT 07/01 A3035 RMK A01 T00650012  RH  069%=      5-min Rain = 0
KHO1 060257Z 33003KT 06/01 A3035 RMK A01 T00640013  RH  070%=      5-min Rain = 0
KHO1 060258Z 33004KT 06/01 A3035 RMK A01 T00630013  RH  070%=      5-min Rain = 0
KHO1 060259Z 33003KT 06/01 A3035 RMK A01 T00620011  RH  070%=      5-min Rain = 0
KHO1 060300Z 33003KT 06/01 A3035 RMK A01 T00610011  RH  070%=      5-min Rain = 0
KHO1 060301Z 33003KT 06/01 A3035 RMK A01 T00610011  RH  070%=      5-min Rain = 0
KHO1 060302Z 33003KT 06/01 A3035 RMK A01 T00600011  RH  071%=      5-min Rain = 0
KHO1 060303Z 33003KT 06/01 A3035 RMK A01 T00590010  RH  071%=      5-min Rain = 0
KHO1 060304Z 33003KT 06/01 A3035 RMK A01 T00580010  RH  071%=      5-min Rain = 0
KHO1 060305Z 33003KT 06/01 A3035 RMK A01 T00580011  RH  072%=      5-min Rain = 0
KHO1 060306Z 33003KT 06/01 A3035 RMK A01 T00570011  RH  072%=      5-min Rain = 0
KHO1 060307Z 33003KT 06/01 A3035 RMK A01 T00570011  RH  072%=      5-min Rain = 0
KHO1 060308Z 32002KT 06/01 A3035 RMK A01 T00560010  RH  072%=      5-min Rain = 0
KHO1 060309Z 32002KT 06/01 A3035 RMK A01 T00560010  RH  072%=      5-min Rain = 0
KHO1 060310Z 32002KT 06/01 A3035 RMK A01 T00560010  RH  072%=      5-min Rain = 0
KHO1 060311Z 32002KT 06/01 A3035 RMK A01 T00550010  RH  072%=      5-min Rain = 0
KHO1 060312Z 32002KT 06/01 A3035 RMK A01 T00550009  RH  072%=      5-min Rain = 0
KHO1 060313Z 32002KT 06/01 A3035 RMK A01 T00550009  RH  072%=      5-min Rain = 0
KHO1 060314Z 32002KT 05/01 A3035 RMK A01 T00540008  RH  072%=      5-min Rain = 0
KHO1 060315Z 32002KT 05/01 A3035 RMK A01 T00540008  RH  072%=      5-min Rain = 0
KHO1 060316Z 31002KT 05/01 A3035 RMK A01 T00540008  RH  072%=      5-min Rain = 0
KHO1 060317Z 31002KT 06/01 A3035 RMK A01 T00550007  RH  072%=      5-min Rain = 0
KHO1 060318Z 31002KT 06/01 A3035 RMK A01 T00550007  RH  071%=      5-min Rain = 0
KHO1 060319Z 31003KT 06/01 A3035 RMK A01 T00550007  RH  071%=      5-min Rain = 0
KHO1 060320Z 31002KT 06/01 A3035 RMK A01 T00550006  RH  071%=      5-min Rain = 0
KHO1 060321Z 32002KT 05/01 A3035 RMK A01 T00540005  RH  070%=      5-min Rain = 0
KHO1 060322Z 32003KT 05/00 A3036 RMK A01 T00540004  RH  070%=      5-min Rain = 0
KHO1 060323Z 32002KT 05/00 A3036 RMK A01 T00540004  RH  070%=      5-min Rain = 0
KHO1 060324Z 32002KT 05/00 A3036 RMK A01 T00530004  RH  070%=      5-min Rain = 0
KHO1 060325Z 33002KT 05/00 A3036 RMK A01 T00530004  RH  071%=      5-min Rain = 0
KHO1 060326Z 33002KT 05/00 A3036 RMK A01 T00520003  RH  070%=      5-min Rain = 0
KHO1 060327Z 33002KT 05/00 A3036 RMK A01 T00520003  RH  071%=      5-min Rain = 0
KHO1 060328Z 33002KT 05/00 A3036 RMK A01 T00510002  RH  071%=      5-min Rain = 0
KHO1 060329Z 33002KT 05/00 A3036 RMK A01 T00510002  RH  071%=      5-min Rain = 0
KHO1 060330Z 33003KT 05/00 A3036 RMK A01 T00500002  RH  071%=      5-min Rain = 0
KHO1 060331Z 34003KT 05/00 A3036 RMK A01 T00500002  RH  071%=      5-min Rain = 0
KHO1 060332Z 34003KT 05/00 A3036 RMK A01 T00500002  RH  071%=      5-min Rain = 0
KHO1 060333Z 34003KT 05/00 A3036 RMK A01 T00490001  RH  071%=      5-min Rain = 0
KHO1 060334Z 34003KT 05/00 A3036 RMK A01 T00490001  RH  071%=      5-min Rain = 0
KHO1 060335Z 33003KT 05/00 A3036 RMK A01 T00490001  RH  071%=      5-min Rain = 0
KHO1 060336Z 33003KT 05/00 A3036 RMK A01 T00490001  RH  071%=      5-min Rain = 0
KHO1 060337Z 33003KT 05/00 A3036 RMK A01 T00490000  RH  071%=      5-min Rain = 0
KHO1 060338Z 33003KT 05/00 A3036 RMK A01 T004800-0  RH  071%=      5-min Rain = 0
KHO1 060339Z 33003KT 05/00 A3036 RMK A01 T004700-0  RH  071%=      5-min Rain = 0
KHO1 060340Z 34003KT 05/M00 A3036 RMK A01 T00471001  RH  071%=      5-min Rain = 0
KHO1 060341Z 34003KT 05/M00 A3036 RMK A01 T00461001  RH  071%=      5-min Rain = 0
KHO1 060342Z 34003KT 05/M00 A3036 RMK A01 T00461001  RH  072%=      5-min Rain = 0
KHO1 060343Z 34004KT 05/M00 A3036 RMK A01 T00451001  RH  072%=      5-min Rain = 0
KHO1 060344Z 34004KT 04/M00 A3036 RMK A01 T00441001  RH  073%=      5-min Rain = 0
KHO1 060345Z 35004KT 04/M00 A3036 RMK A01 T00441001  RH  073%=      5-min Rain = 0
KHO1 060346Z 35004KT 04/00 A3036 RMK A01 T00430001  RH  074%=      5-min Rain = 0
KHO1 060347Z 35004KT 04/00 A3036 RMK A01 T00420001  RH  074%=      5-min Rain = 0
KHO1 060348Z 35004KT 04/00 A3036 RMK A01 T00410000  RH  075%=      5-min Rain = 0
KHO1 060349Z 35005KT 04/00 A3036 RMK A01 T00400001  RH  075%=      5-min Rain = 0
KHO1 060350Z 35005KT 04/00 A3036 RMK A01 T00400001  RH  076%=      5-min Rain = 0
KHO1 060351Z 35005KT 04/00 A3036 RMK A01 T00400001  RH  076%=      5-min Rain = 0
KHO1 060352Z 35005KT 04/00 A3036 RMK A01 T00400001  RH  076%=      5-min Rain = 0
KHO1 060353Z 35004KT 04/00 A3036 RMK A01 T00400001  RH  075%=      5-min Rain = 0
KHO1 060354Z 35004KT 04/00 A3036 RMK A01 T004100-0  RH  075%=      5-min Rain = 0
KHO1 060355Z 35004KT 04/M00 A3036 RMK A01 T00401001  RH  074%=      5-min Rain = 0
KHO1 060356Z 35004KT 04/M00 A3036 RMK A01 T00411001  RH  074%=      5-min Rain = 0
KHO1 060357Z 35004KT 04/M00 A3036 RMK A01 T00411002  RH  074%=      5-min Rain = 0
KHO1 060358Z 35005KT 04/M00 A3036 RMK A01 T00421003  RH  073%=      5-min Rain = 0
KHO1 060359Z 34004KT 04/M00 A3036 RMK A01 T00421004  RH  072%=      5-min Rain = 0
KHO1 060400Z 35005KT 04/M00 A3036 RMK A01 T00421004  RH  072%=      5-min Rain = 0
KHO1 060401Z 34004KT 04/M00 A3036 RMK A01 T00421003  RH  072%=      5-min Rain = 0
KHO1 060402Z 34004KT 04/M00 A3036 RMK A01 T00421004  RH  072%=      5-min Rain = 0
KHO1 060403Z 34003KT 04/M00 A3036 RMK A01 T00421004  RH  072%=      5-min Rain = 0
KHO1 060404Z 34003KT 04/M00 A3036 RMK A01 T00421003  RH  072%=      5-min Rain = 0
KHO1 060405Z 33003KT 04/M00 A3036 RMK A01 T00421003  RH  072%=      5-min Rain = 0
KHO1 060406Z 33004KT 04/M00 A3036 RMK A01 T00421004  RH  072%=      5-min Rain = 0
KHO1 060407Z 33003KT 04/M01 A3036 RMK A01 T00421005  RH  072%=      5-min Rain = 0
KHO1 060408Z 33004KT 04/M01 A3036 RMK A01 T00411005  RH  072%=      5-min Rain = 0
KHO1 060409Z 33004KT 04/M00 A3036 RMK A01 T00401003  RH  074%=      5-min Rain = 0
KHO1 060410Z 33004KT 04/M00 A3036 RMK A01 T00391003  RH  074%=      5-min Rain = 0
KHO1 060411Z 33004KT 04/M00 A3036 RMK A01 T00391003  RH  074%=      5-min Rain = 0
KHO1 060412Z 33004KT 04/M00 A3036 RMK A01 T00381002  RH  075%=      5-min Rain = 0
KHO1 060413Z 32004KT 04/M00 A3036 RMK A01 T00381002  RH  075%=      5-min Rain = 0
KHO1 060414Z 33004KT 04/M00 A3036 RMK A01 T00371004  RH  074%=      5-min Rain = 0
KHO1 060415Z 33004KT 04/M01 A3036 RMK A01 T00371005  RH  074%=      5-min Rain = 0
KHO1 060416Z 33004KT 04/M00 A3036 RMK A01 T00361004  RH  075%=      5-min Rain = 0
KHO1 060417Z 33004KT 04/M00 A3036 RMK A01 T00361004  RH  075%=      5-min Rain = 0
KHO1 060418Z 33005KT 04/M00 A3036 RMK A01 T00371004  RH  075%=      5-min Rain = 0
KHO1 060419Z 33004KT 04/M01 A3036 RMK A01 T00361005  RH  074%=      5-min Rain = 0
KHO1 060420Z 33004KT 04/M01 A3036 RMK A01 T00361005  RH  074%=      5-min Rain = 0
KHO1 060421Z 33004KT 04/M01 A3036 RMK A01 T00361005  RH  074%=      5-min Rain = 0
KHO1 060422Z 33004KT 04/M01 A3036 RMK A01 T00361006  RH  074%=      5-min Rain = 0
KHO1 060423Z 33004KT 04/M01 A3036 RMK A01 T00351006  RH  074%=      5-min Rain = 0
KHO1 060424Z 33004KT 04/M01 A3036 RMK A01 T00351005  RH  075%=      5-min Rain = 0
KHO1 060425Z 33004KT 04/M01 A3036 RMK A01 T00351005  RH  075%=      5-min Rain = 0
KHO1 060426Z 33004KT 04/M01 A3036 RMK A01 T00351005  RH  075%=      5-min Rain = 0
KHO1 060427Z 33004KT 04/M01 A3036 RMK A01 T00361005  RH  075%=      5-min Rain = 0
KHO1 060428Z 33004KT 04/M01 A3036 RMK A01 T00351005  RH  075%=      5-min Rain = 0
KHO1 060429Z 33004KT 04/M01 A3036 RMK A01 T00351005  RH  075%=      5-min Rain = 0
KHO1 060430Z 33004KT 04/M01 A3036 RMK A01 T00351005  RH  075%=      5-min Rain = 0
KHO1 060431Z 33004KT 04/M01 A3036 RMK A01 T00351005  RH  075%=      5-min Rain = 0
KHO1 060432Z 33003KT 04/M01 A3036 RMK A01 T00351006  RH  075%=      5-min Rain = 0
KHO1 060433Z 33003KT 04/M01 A3036 RMK A01 T00351006  RH  075%=      5-min Rain = 0
KHO1 060434Z 34003KT 03/M01 A3036 RMK A01 T00341006  RH  075%=      5-min Rain = 0
KHO1 060435Z 34003KT 03/M01 A3036 RMK A01 T00341006  RH  075%=      5-min Rain = 0
KHO1 060436Z 33003KT 03/M01 A3036 RMK A01 T00341005  RH  075%=      5-min Rain = 0
KHO1 060437Z 34003KT 03/M01 A3036 RMK A01 T00341005  RH  075%=      5-min Rain = 0
KHO1 060438Z 34004KT 04/M01 A3036 RMK A01 T00351006  RH  075%=      5-min Rain = 0
KHO1 060439Z 34005KT 03/M01 A3036 RMK A01 T00341006  RH  075%=      5-min Rain = 0
KHO1 060440Z 34005KT 03/M01 A3036 RMK A01 T00341007  RH  075%=      5-min Rain = 0
KHO1 060441Z 33004KT 04/M01 A3036 RMK A01 T00351006  RH  075%=      5-min Rain = 0
KHO1 060442Z 33005KT 04/M01 A3036 RMK A01 T00351005  RH  075%=      5-min Rain = 0
KHO1 060443Z 33005KT 04/M01 A3036 RMK A01 T00351005  RH  075%=      5-min Rain = 0
KHO1 060444Z 33005KT 04/M01 A3036 RMK A01 T00361005  RH  074%=      5-min Rain = 0
KHO1 060445Z 33005KT 04/M01 A3036 RMK A01 T00361005  RH  075%=      5-min Rain = 0
KHO1 060446Z 33005KT 04/M00 A3036 RMK A01 T00371004  RH  075%=      5-min Rain = 0
KHO1 060447Z 33005KT 04/M00 A3036 RMK A01 T00371004  RH  074%=      5-min Rain = 0
KHO1 060448Z 33005KT 04/M01 A3036 RMK A01 T00371005  RH  074%=      5-min Rain = 0
KHO1 060449Z 33004KT 04/M01 A3036 RMK A01 T00361005  RH  074%=      5-min Rain = 0
KHO1 060450Z 33003KT 04/M01 A3036 RMK A01 T00361005  RH  075%=      5-min Rain = 0
KHO1 060451Z 33004KT 04/M01 A3036 RMK A01 T00351005  RH  075%=      5-min Rain = 0
KHO1 060452Z 32003KT 04/M01 A3036 RMK A01 T00351005  RH  075%=      5-min Rain = 0
KHO1 060453Z 32003KT 04/M01 A3036 RMK A01 T00351005  RH  075%=      5-min Rain = 0
KHO1 060454Z 31003KT 04/M01 A3036 RMK A01 T00351005  RH  075%=      5-min Rain = 0
KHO1 060455Z 31003KT 03/M00 A3036 RMK A01 T00341004  RH  076%=      5-min Rain = 0
KHO1 060456Z 31003KT 03/M01 A3036 RMK A01 T00341005  RH  076%=      5-min Rain = 0
KHO1 060457Z 31003KT 03/M01 A3036 RMK A01 T00341005  RH  076%=      5-min Rain = 0
KHO1 060458Z 31003KT 03/M01 A3036 RMK A01 T00331006  RH  076%=      5-min Rain = 0
KHO1 060459Z 31004KT 03/M01 A3036 RMK A01 T00331006  RH  076%=      5-min Rain = 0
KHO1 060500Z 31004KT 03/M01 A3036 RMK A01 T00321007  RH  076%=      5-min Rain = 0
KHO1 060501Z 32004KT 03/M01 A3036 RMK A01 T00321007  RH  076%=      5-min Rain = 0
KHO1 060502Z 32004KT 03/M01 A3036 RMK A01 T00311007  RH  076%=      5-min Rain = 0
KHO1 060503Z 32004KT 03/M01 A3036 RMK A01 T00311007  RH  076%=      5-min Rain = 0
KHO1 060504Z 32004KT 03/M01 A3036 RMK A01 T00311007  RH  076%=      5-min Rain = 0
KHO1 060505Z 32004KT 03/M01 A3036 RMK A01 T00311007  RH  076%=      5-min Rain = 0
KHO1 060506Z 33003KT 03/M01 A3036 RMK A01 T00311007  RH  076%=      5-min Rain = 0
KHO1 060507Z 32003KT 03/M01 A3036 RMK A01 T00311007  RH  076%=      5-min Rain = 0
KHO1 060508Z 32003KT 03/M01 A3036 RMK A01 T00311007  RH  076%=      5-min Rain = 0
KHO1 060509Z 32003KT 03/M01 A3036 RMK A01 T00311006  RH  076%=      5-min Rain = 0
KHO1 060510Z 32003KT 03/M01 A3036 RMK A01 T00321006  RH  076%=      5-min Rain = 0
KHO1 060511Z 32004KT 03/M01 A3036 RMK A01 T00311006  RH  076%=      5-min Rain = 0
KHO1 060512Z 32004KT 03/M01 A3036 RMK A01 T00311006  RH  076%=      5-min Rain = 0
KHO1 060513Z 32004KT 03/M01 A3036 RMK A01 T00311007  RH  076%=      5-min Rain = 0
KHO1 060514Z 32004KT 03/M01 A3036 RMK A01 T00311007  RH  076%=      5-min Rain = 0
KHO1 060515Z 32004KT 03/M01 A3036 RMK A01 T00301006  RH  077%=      5-min Rain = 0
KHO1 060516Z 32004KT 03/M01 A3036 RMK A01 T00301006  RH  077%=      5-min Rain = 0
KHO1 060517Z 32004KT 03/M01 A3036 RMK A01 T00301007  RH  077%=      5-min Rain = 0
KHO1 060518Z 32004KT 03/M01 A3036 RMK A01 T00301007  RH  077%=      5-min Rain = 0
KHO1 060519Z 32004KT 03/M01 A3036 RMK A01 T00291008  RH  077%=      5-min Rain = 0
KHO1 060520Z 32004KT 03/M01 A3036 RMK A01 T00291008  RH  077%=      5-min Rain = 0
KHO1 060521Z 32004KT 03/M01 A3036 RMK A01 T00291007  RH  077%=      5-min Rain = 0
KHO1 060522Z 33003KT 03/M01 A3036 RMK A01 T00291007  RH  077%=      5-min Rain = 0
KHO1 060523Z 33003KT 03/M01 A3036 RMK A01 T00291007  RH  077%=      5-min Rain = 0
KHO1 060524Z 32003KT 03/M01 A3036 RMK A01 T00291007  RH  077%=      5-min Rain = 0
KHO1 060525Z 33003KT 03/M01 A3036 RMK A01 T00291007  RH  077%=      5-min Rain = 0
KHO1 060526Z 32003KT 03/M01 A3036 RMK A01 T00301007  RH  077%=      5-min Rain = 0
KHO1 060527Z 32004KT 03/M01 A3036 RMK A01 T00301007  RH  077%=      5-min Rain = 0
KHO1 060528Z 32004KT 03/M01 A3036 RMK A01 T00301008  RH  076%=      5-min Rain = 0
KHO1 060529Z 33004KT 03/M01 A3036 RMK A01 T00301008  RH  076%=      5-min Rain = 0
KHO1 060530Z 32004KT 03/M01 A3036 RMK A01 T00301008  RH  076%=      5-min Rain = 0
KHO1 060531Z 33004KT 03/M01 A3036 RMK A01 T00301008  RH  076%=      5-min Rain = 0
KHO1 060532Z 33004KT 03/M01 A3036 RMK A01 T00301009  RH  076%=      5-min Rain = 0
KHO1 060533Z 33004KT 03/M01 A3036 RMK A01 T00301009  RH  076%=      5-min Rain = 0
KHO1 060534Z 33004KT 03/M01 A3036 RMK A01 T00291010  RH  076%=      5-min Rain = 0
KHO1 060535Z 33003KT 03/M01 A3036 RMK A01 T00291010  RH  076%=      5-min Rain = 0
KHO1 060536Z 33004KT 03/M01 A3036 RMK A01 T00281010  RH  076%=      5-min Rain = 0
KHO1 060537Z 32003KT 03/M01 A3036 RMK A01 T00271010  RH  076%=      5-min Rain = 0
KHO1 060538Z 33003KT 03/M01 A3036 RMK A01 T00271010  RH  076%=      5-min Rain = 0
KHO1 060539Z 33003KT 03/M01 A3036 RMK A01 T00271010  RH  077%=      5-min Rain = 0
KHO1 060540Z 33003KT 03/M01 A3036 RMK A01 T00271010  RH  077%=      5-min Rain = 0
KHO1 060541Z 32003KT 03/M01 A3036 RMK A01 T00271010  RH  077%=      5-min Rain = 0
KHO1 060542Z 32003KT 03/M01 A3036 RMK A01 T00271009  RH  077%=      5-min Rain = 0
KHO1 060543Z 31003KT 03/M01 A3036 RMK A01 T00271009  RH  077%=      5-min Rain = 0
KHO1 060544Z 31003KT 03/M01 A3036 RMK A01 T00271009  RH  077%=      5-min Rain = 0
KHO1 060545Z 32003KT 03/M01 A3036 RMK A01 T00271009  RH  077%=      5-min Rain = 0
KHO1 060546Z 32003KT 03/M01 A3036 RMK A01 T00261009  RH  077%=      5-min Rain = 0
KHO1 060547Z 32003KT 03/M01 A3036 RMK A01 T00261010  RH  077%=      5-min Rain = 0
KHO1 060548Z 32003KT 03/M01 A3036 RMK A01 T00261010  RH  077%=      5-min Rain = 0
KHO1 060549Z 33002KT 03/M01 A3036 RMK A01 T00261010  RH  077%=      5-min Rain = 0
KHO1 060550Z 33003KT 03/M01 A3036 RMK A01 T00251011  RH  077%=      5-min Rain = 0
KHO1 060551Z 34003KT 03/M01 A3036 RMK A01 T00251011  RH  077%=      5-min Rain = 0
KHO1 060552Z 34003KT 03/M01 A3036 RMK A01 T00251010  RH  078%=      5-min Rain = 0
KHO1 060553Z 34003KT 03/M01 A3036 RMK A01 T00251010  RH  078%=      5-min Rain = 0
KHO1 060554Z 34003KT 03/M01 A3036 RMK A01 T00251009  RH  078%=      5-min Rain = 0
KHO1 060555Z 34003KT 03/M01 A3036 RMK A01 T00251009  RH  079%=      5-min Rain = 0
KHO1 060556Z 34003KT 03/M01 A3036 RMK A01 T00251009  RH  078%=      5-min Rain = 0
KHO1 060557Z 34003KT 02/M01 A3036 RMK A01 T00241010  RH  078%=      5-min Rain = 0
KHO1 060558Z 34003KT 02/M01 A3036 RMK A01 T00241010  RH  078%=      5-min Rain = 0
KHO1 060559Z 33003KT 02/M01 A3036 RMK A01 T00241009  RH  079%=      5-min Rain = 0

Page generated in 0.0916 seconds.